<?xml version='1.0' encoding='UTF-8'?><gpx version="1.1" creator="JPX - https://github.com/jenetics/jpx" xmlns="http://www.topografix.com/GPX/1/1"><trk><trkseg><trkpt lat="43.7754967" lon="11.260155"><ele>60.99999999999999</ele><time>2026-03-28T14:01:49.577Z</time></trkpt><trkpt lat="43.77541" lon="11.2601483"><ele>61.0</ele><time>2026-03-28T14:01:50.854Z</time></trkpt><trkpt lat="43.7754717" lon="11.26011"><ele>61.0</ele><time>2026-03-28T14:01:52.854Z</time></trkpt><trkpt lat="43.775537" lon="11.2601349"><ele>61.0</ele><time>2026-03-28T14:02:21.854Z</time></trkpt><trkpt lat="43.7755967" lon="11.2601867"><ele>60.99999999999999</ele><time>2026-03-28T14:02:36.854Z</time></trkpt><trkpt lat="43.7756683" lon="11.2602567"><ele>61.0</ele><time>2026-03-28T14:02:39.854Z</time></trkpt><trkpt lat="43.77574" lon="11.2603283"><ele>60.99999999999999</ele><time>2026-03-28T14:02:42.854Z</time></trkpt><trkpt lat="43.7758133" lon="11.2604017"><ele>61.0</ele><time>2026-03-28T14:02:45.854Z</time></trkpt><trkpt lat="43.7758717" lon="11.2604683"><ele>61.0</ele><time>2026-03-28T14:02:48.854Z</time></trkpt><trkpt lat="43.7759367" lon="11.2605333"><ele>61.0</ele><time>2026-03-28T14:02:51.853Z</time></trkpt><trkpt lat="43.7759967" lon="11.2605933"><ele>60.99999999999999</ele><time>2026-03-28T14:02:54.854Z</time></trkpt><trkpt lat="43.776075" lon="11.2606733"><ele>61.0</ele><time>2026-03-28T14:02:57.854Z</time></trkpt><trkpt lat="43.776135" lon="11.2607367"><ele>59.99999999999999</ele><time>2026-03-28T14:03:00.854Z</time></trkpt><trkpt lat="43.7762117" lon="11.26067"><ele>59.0</ele><time>2026-03-28T14:03:04.854Z</time></trkpt><trkpt lat="43.7762933" lon="11.2606567"><ele>58.0</ele><time>2026-03-28T14:03:06.854Z</time></trkpt><trkpt lat="43.7763717" lon="11.260685"><ele>57.0</ele><time>2026-03-28T14:03:08.853Z</time></trkpt><trkpt lat="43.77646" lon="11.2606833"><ele>55.99999999999999</ele><time>2026-03-28T14:03:10.853Z</time></trkpt><trkpt lat="43.7765317" lon="11.2607017"><ele>55.0</ele><time>2026-03-28T14:03:12.854Z</time></trkpt><trkpt lat="43.7765883" lon="11.26074"><ele>54.99999999999999</ele><time>2026-03-28T14:03:14.854Z</time></trkpt><trkpt lat="43.7766517" lon="11.2608283"><ele>55.0</ele><time>2026-03-28T14:03:17.854Z</time></trkpt><trkpt lat="43.776715" lon="11.26089"><ele>55.0</ele><time>2026-03-28T14:03:20.854Z</time></trkpt><trkpt lat="43.77679" lon="11.2608617"><ele>55.0</ele><time>2026-03-28T14:03:23.854Z</time></trkpt><trkpt lat="43.77686" lon="11.2608117"><ele>54.99999999999999</ele><time>2026-03-28T14:03:25.854Z</time></trkpt><trkpt lat="43.7769233" lon="11.2607333"><ele>55.0</ele><time>2026-03-28T14:03:27.854Z</time></trkpt><trkpt lat="43.7769667" lon="11.2606667"><ele>55.49999999999999</ele><time>2026-03-28T14:03:29.854Z</time></trkpt><trkpt lat="43.7770167" lon="11.26058"><ele>56.0</ele><time>2026-03-28T14:03:31.854Z</time></trkpt><trkpt lat="43.7770833" lon="11.2604717"><ele>56.5</ele><time>2026-03-28T14:03:34.854Z</time></trkpt><trkpt lat="43.77711" lon="11.2603583"><ele>57.0</ele><time>2026-03-28T14:03:36.853Z</time></trkpt><trkpt lat="43.7771267" lon="11.2602617"><ele>57.49999999999999</ele><time>2026-03-28T14:03:38.854Z</time></trkpt><trkpt lat="43.7771667" lon="11.26017"><ele>58.0</ele><time>2026-03-28T14:03:40.854Z</time></trkpt><trkpt lat="43.7772117" lon="11.2600833"><ele>58.00000000000001</ele><time>2026-03-28T14:03:42.854Z</time></trkpt><trkpt lat="43.777245" lon="11.2600017"><ele>58.0</ele><time>2026-03-28T14:03:44.853Z</time></trkpt><trkpt lat="43.7772817" lon="11.259925"><ele>58.00000000000001</ele><time>2026-03-28T14:03:46.854Z</time></trkpt><trkpt lat="43.7773233" lon="11.2598533"><ele>58.00000000000001</ele><time>2026-03-28T14:03:48.854Z</time></trkpt><trkpt lat="43.77736" lon="11.2597683"><ele>58.0</ele><time>2026-03-28T14:03:50.854Z</time></trkpt><trkpt lat="43.7774017" lon="11.2596733"><ele>58.00000000000001</ele><time>2026-03-28T14:03:53.854Z</time></trkpt><trkpt lat="43.7774433" lon="11.2595783"><ele>58.00000000000001</ele><time>2026-03-28T14:03:56.854Z</time></trkpt><trkpt lat="43.7774833" lon="11.2594867"><ele>57.83333333333333</ele><time>2026-03-28T14:04:00.854Z</time></trkpt><trkpt lat="43.7775267" lon="11.2593867"><ele>57.666666666666664</ele><time>2026-03-28T14:04:02.854Z</time></trkpt><trkpt lat="43.7775683" lon="11.2592917"><ele>57.5</ele><time>2026-03-28T14:04:04.854Z</time></trkpt><trkpt lat="43.7776017" lon="11.2592133"><ele>57.33333333333333</ele><time>2026-03-28T14:04:06.853Z</time></trkpt><trkpt lat="43.7776983" lon="11.2592117"><ele>57.166666666666664</ele><time>2026-03-28T14:04:09.854Z</time></trkpt><trkpt lat="43.7777633" lon="11.2592133"><ele>57.0</ele><time>2026-03-28T14:04:11.854Z</time></trkpt><trkpt lat="43.7778383" lon="11.2591967"><ele>56.666666666666664</ele><time>2026-03-28T14:04:13.854Z</time></trkpt><trkpt lat="43.7779167" lon="11.2591617"><ele>56.33333333333333</ele><time>2026-03-28T14:04:15.854Z</time></trkpt><trkpt lat="43.7779917" lon="11.2590983"><ele>56.0</ele><time>2026-03-28T14:04:17.854Z</time></trkpt><trkpt lat="43.77805" lon="11.2590333"><ele>55.666666666666664</ele><time>2026-03-28T14:04:19.854Z</time></trkpt><trkpt lat="43.7780867" lon="11.25895"><ele>55.33333333333333</ele><time>2026-03-28T14:04:21.854Z</time></trkpt><trkpt lat="43.7781417" lon="11.2588517"><ele>55.0</ele><time>2026-03-28T14:04:24.854Z</time></trkpt><trkpt lat="43.7781983" lon="11.2587417"><ele>54.99999999999999</ele><time>2026-03-28T14:04:27.854Z</time></trkpt><trkpt lat="43.7782283" lon="11.2586483"><ele>55.0</ele><time>2026-03-28T14:04:29.854Z</time></trkpt><trkpt lat="43.7781983" lon="11.2585367"><ele>55.0</ele><time>2026-03-28T14:04:31.854Z</time></trkpt><trkpt lat="43.778155" lon="11.25841"><ele>55.0</ele><time>2026-03-28T14:04:33.854Z</time></trkpt><trkpt lat="43.778145" lon="11.2582833"><ele>54.99999999999999</ele><time>2026-03-28T14:04:35.854Z</time></trkpt><trkpt lat="43.77817" lon="11.25817"><ele>55.0</ele><time>2026-03-28T14:04:37.854Z</time></trkpt><trkpt lat="43.7781983" lon="11.2580833"><ele>55.166666666666664</ele><time>2026-03-28T14:04:39.854Z</time></trkpt><trkpt lat="43.778225" lon="11.2579867"><ele>55.33333333333333</ele><time>2026-03-28T14:04:41.854Z</time></trkpt><trkpt lat="43.7782717" lon="11.25791"><ele>55.5</ele><time>2026-03-28T14:04:43.854Z</time></trkpt><trkpt lat="43.7783017" lon="11.2578"><ele>55.66666666666667</ele><time>2026-03-28T14:04:45.854Z</time></trkpt><trkpt lat="43.7783383" lon="11.2576917"><ele>55.833333333333336</ele><time>2026-03-28T14:04:47.854Z</time></trkpt><trkpt lat="43.7783983" lon="11.2575917"><ele>56.0</ele><time>2026-03-28T14:04:49.854Z</time></trkpt><trkpt lat="43.7784683" lon="11.2575033"><ele>56.0</ele><time>2026-03-28T14:04:51.854Z</time></trkpt><trkpt lat="43.7785083" lon="11.2573883"><ele>55.99999999999999</ele><time>2026-03-28T14:04:53.854Z</time></trkpt><trkpt lat="43.7785433" lon="11.2572717"><ele>55.99999999999999</ele><time>2026-03-28T14:04:55.854Z</time></trkpt><trkpt lat="43.7785683" lon="11.257175"><ele>56.0</ele><time>2026-03-28T14:04:57.854Z</time></trkpt><trkpt lat="43.7786017" lon="11.2570617"><ele>56.0</ele><time>2026-03-28T14:04:59.854Z</time></trkpt><trkpt lat="43.7786483" lon="11.2569333"><ele>56.0</ele><time>2026-03-28T14:05:01.853Z</time></trkpt><trkpt lat="43.7786967" lon="11.2568017"><ele>55.99999999999999</ele><time>2026-03-28T14:05:03.854Z</time></trkpt><trkpt lat="43.7787417" lon="11.2566783"><ele>55.99999999999999</ele><time>2026-03-28T14:05:05.854Z</time></trkpt><trkpt lat="43.7787967" lon="11.2565683"><ele>56.0</ele><time>2026-03-28T14:05:07.854Z</time></trkpt><trkpt lat="43.7788483" lon="11.2564717"><ele>56.0</ele><time>2026-03-28T14:05:09.854Z</time></trkpt><trkpt lat="43.77891" lon="11.2563917"><ele>56.00000000000001</ele><time>2026-03-28T14:05:11.854Z</time></trkpt><trkpt lat="43.7789533" lon="11.2562983"><ele>56.0</ele><time>2026-03-28T14:05:14.854Z</time></trkpt><trkpt lat="43.77899" lon="11.2562117"><ele>56.0</ele><time>2026-03-28T14:05:18.854Z</time></trkpt><trkpt lat="43.779025" lon="11.2561333"><ele>56.0</ele><time>2026-03-28T14:05:21.853Z</time></trkpt><trkpt lat="43.779065" lon="11.2560417"><ele>56.00000000000001</ele><time>2026-03-28T14:05:26.854Z</time></trkpt><trkpt lat="43.77911" lon="11.2559367"><ele>56.0</ele><time>2026-03-28T14:05:29.854Z</time></trkpt><trkpt lat="43.7791467" lon="11.2558533"><ele>56.00000000000001</ele><time>2026-03-28T14:05:32.854Z</time></trkpt><trkpt lat="43.7791883" lon="11.2557583"><ele>56.0</ele><time>2026-03-28T14:05:34.854Z</time></trkpt><trkpt lat="43.7792267" lon="11.25567"><ele>56.0</ele><time>2026-03-28T14:05:36.854Z</time></trkpt><trkpt lat="43.7792617" lon="11.25559"><ele>56.0</ele><time>2026-03-28T14:05:39.854Z</time></trkpt><trkpt lat="43.7793" lon="11.2555"><ele>56.00000000000001</ele><time>2026-03-28T14:05:45.854Z</time></trkpt><trkpt lat="43.779335" lon="11.25542"><ele>56.0</ele><time>2026-03-28T14:05:49.854Z</time></trkpt><trkpt lat="43.7793833" lon="11.2553117"><ele>55.833333333333336</ele><time>2026-03-28T14:05:52.854Z</time></trkpt><trkpt lat="43.7794217" lon="11.2552217"><ele>55.66666666666667</ele><time>2026-03-28T14:05:54.854Z</time></trkpt><trkpt lat="43.77946" lon="11.2551317"><ele>55.5</ele><time>2026-03-28T14:05:56.854Z</time></trkpt><trkpt lat="43.7794967" lon="11.2550483"><ele>55.33333333333333</ele><time>2026-03-28T14:05:58.854Z</time></trkpt><trkpt lat="43.7795467" lon="11.2549333"><ele>55.166666666666664</ele><time>2026-03-28T14:06:01.854Z</time></trkpt><trkpt lat="43.7795933" lon="11.2548267"><ele>55.0</ele><time>2026-03-28T14:06:04.853Z</time></trkpt><trkpt lat="43.7796433" lon="11.2547117"><ele>54.99999999999999</ele><time>2026-03-28T14:06:07.854Z</time></trkpt><trkpt lat="43.7796767" lon="11.254635"><ele>55.0</ele><time>2026-03-28T14:06:09.854Z</time></trkpt><trkpt lat="43.7797133" lon="11.2545517"><ele>55.0</ele><time>2026-03-28T14:06:12.854Z</time></trkpt><trkpt lat="43.7797733" lon="11.25443"><ele>55.0</ele><time>2026-03-28T14:06:17.854Z</time></trkpt><trkpt lat="43.7798283" lon="11.2543033"><ele>54.99999999999999</ele><time>2026-03-28T14:06:20.854Z</time></trkpt><trkpt lat="43.7798667" lon="11.25421"><ele>55.0</ele><time>2026-03-28T14:06:22.854Z</time></trkpt><trkpt lat="43.7799" lon="11.2541067"><ele>54.99999999999999</ele><time>2026-03-28T14:06:24.854Z</time></trkpt><trkpt lat="43.7799333" lon="11.254"><ele>55.0</ele><time>2026-03-28T14:06:26.854Z</time></trkpt><trkpt lat="43.7799733" lon="11.2538883"><ele>55.0</ele><time>2026-03-28T14:06:28.854Z</time></trkpt><trkpt lat="43.7800167" lon="11.2537867"><ele>55.0</ele><time>2026-03-28T14:06:30.854Z</time></trkpt><trkpt lat="43.780055" lon="11.2536883"><ele>54.99999999999999</ele><time>2026-03-28T14:06:32.854Z</time></trkpt><trkpt lat="43.780085" lon="11.2535867"><ele>55.0</ele><time>2026-03-28T14:06:34.854Z</time></trkpt><trkpt lat="43.78011" lon="11.2534917"><ele>55.28571428571428</ele><time>2026-03-28T14:06:36.854Z</time></trkpt><trkpt lat="43.7801383" lon="11.2534083"><ele>55.57142857142857</ele><time>2026-03-28T14:06:38.854Z</time></trkpt><trkpt lat="43.7801233" lon="11.25331"><ele>55.857142857142854</ele><time>2026-03-28T14:06:41.854Z</time></trkpt><trkpt lat="43.7800633" lon="11.2532267"><ele>56.14285714285714</ele><time>2026-03-28T14:06:44.854Z</time></trkpt><trkpt lat="43.780015" lon="11.2531617"><ele>56.42857142857142</ele><time>2026-03-28T14:06:46.854Z</time></trkpt><trkpt lat="43.77995" lon="11.2530817"><ele>56.71428571428571</ele><time>2026-03-28T14:06:48.854Z</time></trkpt><trkpt lat="43.779885" lon="11.25305"><ele>57.0</ele><time>2026-03-28T14:06:50.854Z</time></trkpt><trkpt lat="43.7798217" lon="11.2529967"><ele>57.166666666666664</ele><time>2026-03-28T14:06:52.854Z</time></trkpt><trkpt lat="43.7797283" lon="11.2529183"><ele>57.33333333333333</ele><time>2026-03-28T14:06:55.854Z</time></trkpt><trkpt lat="43.7796717" lon="11.2528717"><ele>57.5</ele><time>2026-03-28T14:06:57.854Z</time></trkpt><trkpt lat="43.7796133" lon="11.252825"><ele>57.666666666666664</ele><time>2026-03-28T14:06:59.854Z</time></trkpt><trkpt lat="43.779555" lon="11.2527767"><ele>57.83333333333333</ele><time>2026-03-28T14:07:01.854Z</time></trkpt><trkpt lat="43.7794983" lon="11.2527283"><ele>58.0</ele><time>2026-03-28T14:07:03.854Z</time></trkpt><trkpt lat="43.7794317" lon="11.25264"><ele>57.99999999999999</ele><time>2026-03-28T14:07:06.853Z</time></trkpt><trkpt lat="43.779385" lon="11.252575"><ele>58.0</ele><time>2026-03-28T14:07:08.854Z</time></trkpt><trkpt lat="43.7794067" lon="11.2524733"><ele>58.0</ele><time>2026-03-28T14:07:10.854Z</time></trkpt><trkpt lat="43.7794467" lon="11.2523533"><ele>58.0</ele><time>2026-03-28T14:07:12.853Z</time></trkpt><trkpt lat="43.7794983" lon="11.2522533"><ele>57.99999999999999</ele><time>2026-03-28T14:07:14.854Z</time></trkpt><trkpt lat="43.779565" lon="11.2521533"><ele>58.0</ele><time>2026-03-28T14:07:16.853Z</time></trkpt><trkpt lat="43.7796417" lon="11.2520583"><ele>57.49999999999999</ele><time>2026-03-28T14:07:18.854Z</time></trkpt><trkpt lat="43.7797433" lon="11.25192"><ele>57.0</ele><time>2026-03-28T14:07:21.854Z</time></trkpt><trkpt lat="43.7797333" lon="11.2518317"><ele>56.5</ele><time>2026-03-28T14:07:22.854Z</time></trkpt><trkpt lat="43.77977" lon="11.2517233"><ele>56.0</ele><time>2026-03-28T14:07:24.854Z</time></trkpt><trkpt lat="43.7798183" lon="11.2516183"><ele>55.49999999999999</ele><time>2026-03-28T14:07:26.854Z</time></trkpt><trkpt lat="43.7798583" lon="11.25155"><ele>55.0</ele><time>2026-03-28T14:07:28.854Z</time></trkpt><trkpt lat="43.7799" lon="11.2514683"><ele>54.666666666666664</ele><time>2026-03-28T14:07:30.854Z</time></trkpt><trkpt lat="43.77995" lon="11.2513583"><ele>54.33333333333333</ele><time>2026-03-28T14:07:32.854Z</time></trkpt><trkpt lat="43.7799917" lon="11.2512633"><ele>54.0</ele><time>2026-03-28T14:07:35.854Z</time></trkpt><trkpt lat="43.7800067" lon="11.2511567"><ele>53.66666666666667</ele><time>2026-03-28T14:07:37.854Z</time></trkpt><trkpt lat="43.7799383" lon="11.25108"><ele>53.333333333333336</ele><time>2026-03-28T14:07:39.854Z</time></trkpt><trkpt lat="43.7798567" lon="11.2510383"><ele>53.0</ele><time>2026-03-28T14:07:40.854Z</time></trkpt><trkpt lat="43.7797983" lon="11.2510017"><ele>53.00000000000001</ele><time>2026-03-28T14:07:41.854Z</time></trkpt><trkpt lat="43.7797" lon="11.2509333"><ele>53.0</ele><time>2026-03-28T14:07:43.854Z</time></trkpt><trkpt lat="43.7796217" lon="11.25088"><ele>53.0</ele><time>2026-03-28T14:07:45.854Z</time></trkpt><trkpt lat="43.7795567" lon="11.2508217"><ele>53.0</ele><time>2026-03-28T14:07:47.854Z</time></trkpt><trkpt lat="43.7794867" lon="11.25076"><ele>53.00000000000001</ele><time>2026-03-28T14:07:49.853Z</time></trkpt><trkpt lat="43.7794233" lon="11.2507033"><ele>53.0</ele><time>2026-03-28T14:07:51.854Z</time></trkpt><trkpt lat="43.7793617" lon="11.2506467"><ele>52.66666666666667</ele><time>2026-03-28T14:07:53.853Z</time></trkpt><trkpt lat="43.7793217" lon="11.2505667"><ele>52.333333333333336</ele><time>2026-03-28T14:07:56.854Z</time></trkpt><trkpt lat="43.7793633" lon="11.250425"><ele>52.0</ele><time>2026-03-28T14:07:58.854Z</time></trkpt><trkpt lat="43.7794117" lon="11.2503083"><ele>51.66666666666667</ele><time>2026-03-28T14:08:00.854Z</time></trkpt><trkpt lat="43.7794683" lon="11.25024"><ele>51.333333333333336</ele><time>2026-03-28T14:08:02.853Z</time></trkpt><trkpt lat="43.7795333" lon="11.2501867"><ele>51.0</ele><time>2026-03-28T14:08:04.854Z</time></trkpt><trkpt lat="43.779595" lon="11.2501433"><ele>50.85714285714286</ele><time>2026-03-28T14:08:06.854Z</time></trkpt><trkpt lat="43.7796583" lon="11.2500967"><ele>50.714285714285715</ele><time>2026-03-28T14:08:08.853Z</time></trkpt><trkpt lat="43.779735" lon="11.250055"><ele>50.57142857142857</ele><time>2026-03-28T14:08:10.854Z</time></trkpt><trkpt lat="43.779795" lon="11.250015"><ele>50.42857142857143</ele><time>2026-03-28T14:08:12.854Z</time></trkpt><trkpt lat="43.77986" lon="11.2499717"><ele>50.285714285714285</ele><time>2026-03-28T14:08:14.854Z</time></trkpt><trkpt lat="43.77992" lon="11.2499283"><ele>50.142857142857146</ele><time>2026-03-28T14:08:16.853Z</time></trkpt><trkpt lat="43.7799767" lon="11.2498783"><ele>50.0</ele><time>2026-03-28T14:08:18.854Z</time></trkpt><trkpt lat="43.7800333" lon="11.249835"><ele>49.85714285714286</ele><time>2026-03-28T14:08:20.852Z</time></trkpt><trkpt lat="43.7800883" lon="11.2497683"><ele>49.714285714285715</ele><time>2026-03-28T14:08:22.853Z</time></trkpt><trkpt lat="43.7801517" lon="11.2497133"><ele>49.57142857142857</ele><time>2026-03-28T14:08:24.852Z</time></trkpt><trkpt lat="43.780205" lon="11.2496533"><ele>49.42857142857143</ele><time>2026-03-28T14:08:26.853Z</time></trkpt><trkpt lat="43.78022" lon="11.24956"><ele>49.285714285714285</ele><time>2026-03-28T14:08:28.853Z</time></trkpt><trkpt lat="43.7802117" lon="11.24946"><ele>49.142857142857146</ele><time>2026-03-28T14:08:30.853Z</time></trkpt><trkpt lat="43.7802083" lon="11.2493567"><ele>49.0</ele><time>2026-03-28T14:08:32.853Z</time></trkpt><trkpt lat="43.7802017" lon="11.2492683"><ele>49.166666666666664</ele><time>2026-03-28T14:08:34.853Z</time></trkpt><trkpt lat="43.7802217" lon="11.2491533"><ele>49.33333333333333</ele><time>2026-03-28T14:08:37.853Z</time></trkpt><trkpt lat="43.780305" lon="11.2491"><ele>49.5</ele><time>2026-03-28T14:08:40.853Z</time></trkpt><trkpt lat="43.7803683" lon="11.2490633"><ele>49.66666666666667</ele><time>2026-03-28T14:08:42.853Z</time></trkpt><trkpt lat="43.7804067" lon="11.24899"><ele>49.833333333333336</ele><time>2026-03-28T14:08:44.853Z</time></trkpt><trkpt lat="43.7804217" lon="11.2488617"><ele>50.0</ele><time>2026-03-28T14:08:46.852Z</time></trkpt><trkpt lat="43.7804083" lon="11.2487583"><ele>50.0</ele><time>2026-03-28T14:08:48.853Z</time></trkpt><trkpt lat="43.78039" lon="11.248655"><ele>50.0</ele><time>2026-03-28T14:08:50.853Z</time></trkpt><trkpt lat="43.78036" lon="11.248555"><ele>50.0</ele><time>2026-03-28T14:08:52.853Z</time></trkpt><trkpt lat="43.7803117" lon="11.2484"><ele>50.0</ele><time>2026-03-28T14:08:55.853Z</time></trkpt><trkpt lat="43.780285" lon="11.24829"><ele>50.0</ele><time>2026-03-28T14:08:57.853Z</time></trkpt><trkpt lat="43.78025" lon="11.2481733"><ele>49.8</ele><time>2026-03-28T14:08:59.853Z</time></trkpt><trkpt lat="43.7802083" lon="11.2480433"><ele>49.6</ele><time>2026-03-28T14:09:01.853Z</time></trkpt><trkpt lat="43.7801667" lon="11.2478917"><ele>49.400000000000006</ele><time>2026-03-28T14:09:03.853Z</time></trkpt><trkpt lat="43.7801217" lon="11.2477467"><ele>49.2</ele><time>2026-03-28T14:09:05.853Z</time></trkpt><trkpt lat="43.780095" lon="11.2476633"><ele>49.0</ele><time>2026-03-28T14:09:06.853Z</time></trkpt><trkpt lat="43.7800583" lon="11.2475817"><ele>49.0</ele><time>2026-03-28T14:09:07.852Z</time></trkpt><trkpt lat="43.77999" lon="11.247435"><ele>49.0</ele><time>2026-03-28T14:09:09.853Z</time></trkpt><trkpt lat="43.77993" lon="11.247325"><ele>49.0</ele><time>2026-03-28T14:09:11.853Z</time></trkpt><trkpt lat="43.7799667" lon="11.2472433"><ele>49.0</ele><time>2026-03-28T14:09:15.853Z</time></trkpt><trkpt lat="43.78005" lon="11.247155"><ele>49.0</ele><time>2026-03-28T14:09:18.853Z</time></trkpt><trkpt lat="43.780125" lon="11.2470833"><ele>48.57142857142857</ele><time>2026-03-28T14:09:20.853Z</time></trkpt><trkpt lat="43.7801867" lon="11.2470633"><ele>48.14285714285714</ele><time>2026-03-28T14:09:22.853Z</time></trkpt><trkpt lat="43.78025" lon="11.2470483"><ele>47.714285714285715</ele><time>2026-03-28T14:09:24.853Z</time></trkpt><trkpt lat="43.7803217" lon="11.24702"><ele>47.285714285714285</ele><time>2026-03-28T14:09:26.853Z</time></trkpt><trkpt lat="43.7803917" lon="11.24697"><ele>46.857142857142854</ele><time>2026-03-28T14:09:28.852Z</time></trkpt><trkpt lat="43.7804633" lon="11.2469067"><ele>46.42857142857143</ele><time>2026-03-28T14:09:30.853Z</time></trkpt><trkpt lat="43.780535" lon="11.2468617"><ele>46.0</ele><time>2026-03-28T14:09:32.853Z</time></trkpt><trkpt lat="43.7806133" lon="11.2468283"><ele>46.0</ele><time>2026-03-28T14:09:34.853Z</time></trkpt><trkpt lat="43.780695" lon="11.2467817"><ele>46.0</ele><time>2026-03-28T14:09:36.853Z</time></trkpt><trkpt lat="43.7807667" lon="11.2467317"><ele>46.0</ele><time>2026-03-28T14:09:38.853Z</time></trkpt><trkpt lat="43.7808367" lon="11.2466983"><ele>46.0</ele><time>2026-03-28T14:09:40.853Z</time></trkpt><trkpt lat="43.7809067" lon="11.24666"><ele>46.0</ele><time>2026-03-28T14:09:42.853Z</time></trkpt><trkpt lat="43.7809867" lon="11.2466183"><ele>46.0</ele><time>2026-03-28T14:09:44.853Z</time></trkpt><trkpt lat="43.7810667" lon="11.2465617"><ele>46.199999999999996</ele><time>2026-03-28T14:09:46.853Z</time></trkpt><trkpt lat="43.7811483" lon="11.2465067"><ele>46.4</ele><time>2026-03-28T14:09:48.853Z</time></trkpt><trkpt lat="43.7812317" lon="11.24645"><ele>46.6</ele><time>2026-03-28T14:09:50.853Z</time></trkpt><trkpt lat="43.781315" lon="11.2464"><ele>46.8</ele><time>2026-03-28T14:09:52.852Z</time></trkpt><trkpt lat="43.7814017" lon="11.24635"><ele>47.0</ele><time>2026-03-28T14:09:54.853Z</time></trkpt><trkpt lat="43.78148" lon="11.2462933"><ele>47.2</ele><time>2026-03-28T14:09:56.853Z</time></trkpt><trkpt lat="43.78156" lon="11.2462367"><ele>47.400000000000006</ele><time>2026-03-28T14:09:58.853Z</time></trkpt><trkpt lat="43.7816433" lon="11.246185"><ele>47.599999999999994</ele><time>2026-03-28T14:10:00.853Z</time></trkpt><trkpt lat="43.7817383" lon="11.2461317"><ele>47.8</ele><time>2026-03-28T14:10:02.852Z</time></trkpt><trkpt lat="43.7818283" lon="11.2460867"><ele>48.0</ele><time>2026-03-28T14:10:04.853Z</time></trkpt><trkpt lat="43.781915" lon="11.2460517"><ele>47.4</ele><time>2026-03-28T14:10:06.853Z</time></trkpt><trkpt lat="43.7820033" lon="11.2460083"><ele>46.8</ele><time>2026-03-28T14:10:08.853Z</time></trkpt><trkpt lat="43.7820833" lon="11.245955"><ele>46.2</ele><time>2026-03-28T14:10:10.853Z</time></trkpt><trkpt lat="43.78217" lon="11.2458917"><ele>45.6</ele><time>2026-03-28T14:10:12.853Z</time></trkpt><trkpt lat="43.7822567" lon="11.24586"><ele>45.0</ele><time>2026-03-28T14:10:14.852Z</time></trkpt><trkpt lat="43.7823383" lon="11.2458283"><ele>45.0</ele><time>2026-03-28T14:10:16.853Z</time></trkpt><trkpt lat="43.7824133" lon="11.2457883"><ele>45.0</ele><time>2026-03-28T14:10:18.853Z</time></trkpt><trkpt lat="43.7824783" lon="11.2457633"><ele>45.0</ele><time>2026-03-28T14:10:20.853Z</time></trkpt><trkpt lat="43.7825683" lon="11.2457333"><ele>45.0</ele><time>2026-03-28T14:10:23.853Z</time></trkpt><trkpt lat="43.782645" lon="11.2457267"><ele>45.0</ele><time>2026-03-28T14:10:26.853Z</time></trkpt><trkpt lat="43.78272" lon="11.2457433"><ele>45.0</ele><time>2026-03-28T14:10:28.852Z</time></trkpt><trkpt lat="43.7828033" lon="11.2457633"><ele>45.166666666666664</ele><time>2026-03-28T14:10:31.853Z</time></trkpt><trkpt lat="43.7828733" lon="11.24577"><ele>45.333333333333336</ele><time>2026-03-28T14:10:34.853Z</time></trkpt><trkpt lat="43.782915" lon="11.2456533"><ele>45.5</ele><time>2026-03-28T14:10:40.853Z</time></trkpt><trkpt lat="43.78291" lon="11.2455283"><ele>45.66666666666667</ele><time>2026-03-28T14:10:42.853Z</time></trkpt><trkpt lat="43.7828667" lon="11.24542"><ele>45.833333333333336</ele><time>2026-03-28T14:10:45.853Z</time></trkpt><trkpt lat="43.7828217" lon="11.2453533"><ele>46.0</ele><time>2026-03-28T14:10:47.853Z</time></trkpt><trkpt lat="43.782755" lon="11.24529"><ele>46.4</ele><time>2026-03-28T14:10:49.853Z</time></trkpt><trkpt lat="43.7825983" lon="11.2451417"><ele>46.8</ele><time>2026-03-28T14:10:54.856Z</time></trkpt><trkpt lat="43.7826117" lon="11.24505"><ele>47.199999999999996</ele><time>2026-03-28T14:10:56.856Z</time></trkpt><trkpt lat="43.782585" lon="11.24495"><ele>47.599999999999994</ele><time>2026-03-28T14:10:57.855Z</time></trkpt><trkpt lat="43.7825783" lon="11.24483"><ele>48.0</ele><time>2026-03-28T14:10:58.856Z</time></trkpt><trkpt lat="43.782635" lon="11.2446567"><ele>48.166666666666664</ele><time>2026-03-28T14:10:59.856Z</time></trkpt><trkpt lat="43.7826683" lon="11.2445583"><ele>48.33333333333333</ele><time>2026-03-28T14:11:00.856Z</time></trkpt><trkpt lat="43.78271" lon="11.244435"><ele>48.5</ele><time>2026-03-28T14:11:01.856Z</time></trkpt><trkpt lat="43.782665" lon="11.2443367"><ele>48.666666666666664</ele><time>2026-03-28T14:11:03.856Z</time></trkpt><trkpt lat="43.782635" lon="11.2442433"><ele>48.83333333333333</ele><time>2026-03-28T14:11:05.856Z</time></trkpt><trkpt lat="43.78259" lon="11.2441567"><ele>49.0</ele><time>2026-03-28T14:11:07.856Z</time></trkpt><trkpt lat="43.7825433" lon="11.2440767"><ele>48.99999999999999</ele><time>2026-03-28T14:11:09.856Z</time></trkpt><trkpt lat="43.7824833" lon="11.24402"><ele>49.0</ele><time>2026-03-28T14:11:11.856Z</time></trkpt><trkpt lat="43.782415" lon="11.24394"><ele>49.0</ele><time>2026-03-28T14:11:13.856Z</time></trkpt><trkpt lat="43.7823633" lon="11.2438583"><ele>49.0</ele><time>2026-03-28T14:11:15.856Z</time></trkpt><trkpt lat="43.7823017" lon="11.243785"><ele>48.99999999999999</ele><time>2026-03-28T14:11:17.856Z</time></trkpt><trkpt lat="43.78227" lon="11.2437"><ele>49.0</ele><time>2026-03-28T14:11:19.856Z</time></trkpt><trkpt lat="43.7822167" lon="11.2436333"><ele>48.83333333333333</ele><time>2026-03-28T14:11:21.856Z</time></trkpt><trkpt lat="43.7821583" lon="11.24356"><ele>48.666666666666664</ele><time>2026-03-28T14:11:23.856Z</time></trkpt><trkpt lat="43.782105" lon="11.2434933"><ele>48.5</ele><time>2026-03-28T14:11:25.856Z</time></trkpt><trkpt lat="43.7820367" lon="11.2434083"><ele>48.33333333333333</ele><time>2026-03-28T14:11:28.856Z</time></trkpt><trkpt lat="43.7819833" lon="11.2433567"><ele>48.166666666666664</ele><time>2026-03-28T14:11:30.856Z</time></trkpt><trkpt lat="43.7819067" lon="11.2432817"><ele>48.0</ele><time>2026-03-28T14:11:33.856Z</time></trkpt><trkpt lat="43.781845" lon="11.2432267"><ele>47.99999999999999</ele><time>2026-03-28T14:11:36.856Z</time></trkpt><trkpt lat="43.78178" lon="11.24317"><ele>48.0</ele><time>2026-03-28T14:11:39.856Z</time></trkpt><trkpt lat="43.7817267" lon="11.2431217"><ele>48.0</ele><time>2026-03-28T14:11:42.856Z</time></trkpt><trkpt lat="43.7817383" lon="11.2430183"><ele>48.0</ele><time>2026-03-28T14:11:56.856Z</time></trkpt><trkpt lat="43.781715" lon="11.242925"><ele>48.0</ele><time>2026-03-28T14:12:00.856Z</time></trkpt><trkpt lat="43.7817483" lon="11.2428433"><ele>47.99999999999999</ele><time>2026-03-28T14:12:03.856Z</time></trkpt><trkpt lat="43.7817817" lon="11.2427617"><ele>48.0</ele><time>2026-03-28T14:12:07.855Z</time></trkpt><trkpt lat="43.781825" lon="11.2426867"><ele>47.666666666666664</ele><time>2026-03-28T14:12:10.856Z</time></trkpt><trkpt lat="43.7818033" lon="11.2425917"><ele>47.333333333333336</ele><time>2026-03-28T14:12:16.855Z</time></trkpt><trkpt lat="43.781755" lon="11.2425267"><ele>47.0</ele><time>2026-03-28T14:12:19.856Z</time></trkpt><trkpt lat="43.7817067" lon="11.24246"><ele>46.66666666666667</ele><time>2026-03-28T14:12:22.856Z</time></trkpt><trkpt lat="43.7816417" lon="11.2424083"><ele>46.333333333333336</ele><time>2026-03-28T14:12:26.855Z</time></trkpt><trkpt lat="43.78156" lon="11.2423433"><ele>46.0</ele><time>2026-03-28T14:12:29.856Z</time></trkpt><trkpt lat="43.78146" lon="11.2422633"><ele>45.8</ele><time>2026-03-28T14:12:32.856Z</time></trkpt><trkpt lat="43.7813867" lon="11.242205"><ele>45.599999999999994</ele><time>2026-03-28T14:12:34.856Z</time></trkpt><trkpt lat="43.7812983" lon="11.242135"><ele>45.4</ele><time>2026-03-28T14:12:36.856Z</time></trkpt><trkpt lat="43.7812167" lon="11.2420633"><ele>45.2</ele><time>2026-03-28T14:12:38.856Z</time></trkpt><trkpt lat="43.7811217" lon="11.2420017"><ele>45.0</ele><time>2026-03-28T14:12:40.856Z</time></trkpt><trkpt lat="43.7810283" lon="11.241945"><ele>45.2</ele><time>2026-03-28T14:12:42.856Z</time></trkpt><trkpt lat="43.7809417" lon="11.2418833"><ele>45.4</ele><time>2026-03-28T14:12:44.855Z</time></trkpt><trkpt lat="43.780845" lon="11.241825"><ele>45.599999999999994</ele><time>2026-03-28T14:12:46.856Z</time></trkpt><trkpt lat="43.78076" lon="11.2417717"><ele>45.8</ele><time>2026-03-28T14:12:48.856Z</time></trkpt><trkpt lat="43.780635" lon="11.24165"><ele>46.0</ele><time>2026-03-28T14:12:51.856Z</time></trkpt><trkpt lat="43.7805533" lon="11.2415867"><ele>46.0</ele><time>2026-03-28T14:12:53.856Z</time></trkpt><trkpt lat="43.7804683" lon="11.2415467"><ele>46.0</ele><time>2026-03-28T14:12:55.856Z</time></trkpt><trkpt lat="43.7803867" lon="11.2414967"><ele>46.0</ele><time>2026-03-28T14:12:57.856Z</time></trkpt><trkpt lat="43.7802917" lon="11.2414483"><ele>46.0</ele><time>2026-03-28T14:12:59.856Z</time></trkpt><trkpt lat="43.7802067" lon="11.2413917"><ele>46.0</ele><time>2026-03-28T14:13:01.855Z</time></trkpt><trkpt lat="43.78012" lon="11.2413367"><ele>46.16666666666667</ele><time>2026-03-28T14:13:03.856Z</time></trkpt><trkpt lat="43.780055" lon="11.2412717"><ele>46.333333333333336</ele><time>2026-03-28T14:13:05.856Z</time></trkpt><trkpt lat="43.7799817" lon="11.241215"><ele>46.5</ele><time>2026-03-28T14:13:07.856Z</time></trkpt><trkpt lat="43.7799033" lon="11.2411583"><ele>46.666666666666664</ele><time>2026-03-28T14:13:09.856Z</time></trkpt><trkpt lat="43.77982" lon="11.2411033"><ele>46.83333333333333</ele><time>2026-03-28T14:13:11.856Z</time></trkpt><trkpt lat="43.7797417" lon="11.2410383"><ele>47.0</ele><time>2026-03-28T14:13:13.856Z</time></trkpt><trkpt lat="43.7796567" lon="11.2409883"><ele>47.0</ele><time>2026-03-28T14:13:15.856Z</time></trkpt><trkpt lat="43.7795683" lon="11.2409567"><ele>47.0</ele><time>2026-03-28T14:13:17.855Z</time></trkpt><trkpt lat="43.77949" lon="11.2409133"><ele>47.0</ele><time>2026-03-28T14:13:19.855Z</time></trkpt><trkpt lat="43.77942" lon="11.2408583"><ele>47.0</ele><time>2026-03-28T14:13:21.855Z</time></trkpt><trkpt lat="43.7793567" lon="11.2408"><ele>47.0</ele><time>2026-03-28T14:13:23.855Z</time></trkpt><trkpt lat="43.779285" lon="11.2407567"><ele>47.0</ele><time>2026-03-28T14:13:25.855Z</time></trkpt><trkpt lat="43.7792283" lon="11.240695"><ele>46.83333333333333</ele><time>2026-03-28T14:13:27.855Z</time></trkpt><trkpt lat="43.77926" lon="11.2406"><ele>46.666666666666664</ele><time>2026-03-28T14:13:32.855Z</time></trkpt><trkpt lat="43.779315" lon="11.240515"><ele>46.5</ele><time>2026-03-28T14:13:35.854Z</time></trkpt><trkpt lat="43.7793733" lon="11.240455"><ele>46.333333333333336</ele><time>2026-03-28T14:13:37.855Z</time></trkpt><trkpt lat="43.779425" lon="11.2403883"><ele>46.16666666666667</ele><time>2026-03-28T14:13:39.855Z</time></trkpt><trkpt lat="43.7795017" lon="11.2402867"><ele>46.0</ele><time>2026-03-28T14:13:42.854Z</time></trkpt><trkpt lat="43.7795833" lon="11.2401933"><ele>46.75</ele><time>2026-03-28T14:13:44.855Z</time></trkpt><trkpt lat="43.779665" lon="11.2400967"><ele>47.5</ele><time>2026-03-28T14:13:46.854Z</time></trkpt><trkpt lat="43.7797533" lon="11.2399867"><ele>48.25</ele><time>2026-03-28T14:13:48.854Z</time></trkpt><trkpt lat="43.7798433" lon="11.239875"><ele>49.0</ele><time>2026-03-28T14:13:50.855Z</time></trkpt><trkpt lat="43.77992" lon="11.239775"><ele>49.0</ele><time>2026-03-28T14:13:52.855Z</time></trkpt><trkpt lat="43.779985" lon="11.2397017"><ele>49.0</ele><time>2026-03-28T14:13:54.855Z</time></trkpt><trkpt lat="43.7800617" lon="11.2396233"><ele>49.0</ele><time>2026-03-28T14:13:56.855Z</time></trkpt><trkpt lat="43.780135" lon="11.23955"><ele>49.0</ele><time>2026-03-28T14:13:58.855Z</time></trkpt><trkpt lat="43.78019" lon="11.2394717"><ele>49.0</ele><time>2026-03-28T14:14:00.855Z</time></trkpt><trkpt lat="43.7802783" lon="11.2393517"><ele>48.6</ele><time>2026-03-28T14:14:02.854Z</time></trkpt><trkpt lat="43.7803233" lon="11.2392883"><ele>48.2</ele><time>2026-03-28T14:14:03.855Z</time></trkpt><trkpt lat="43.7803933" lon="11.2392"><ele>47.800000000000004</ele><time>2026-03-28T14:14:05.855Z</time></trkpt><trkpt lat="43.7804817" lon="11.2391183"><ele>47.400000000000006</ele><time>2026-03-28T14:14:07.855Z</time></trkpt><trkpt lat="43.7805733" lon="11.2390217"><ele>47.0</ele><time>2026-03-28T14:14:09.855Z</time></trkpt><trkpt lat="43.7806733" lon="11.2389333"><ele>47.0</ele><time>2026-03-28T14:14:11.854Z</time></trkpt><trkpt lat="43.7807617" lon="11.2388433"><ele>47.0</ele><time>2026-03-28T14:14:13.855Z</time></trkpt><trkpt lat="43.7808317" lon="11.2387567"><ele>47.0</ele><time>2026-03-28T14:14:15.855Z</time></trkpt><trkpt lat="43.7809033" lon="11.2386467"><ele>47.0</ele><time>2026-03-28T14:14:17.855Z</time></trkpt><trkpt lat="43.78098" lon="11.2385367"><ele>47.0</ele><time>2026-03-28T14:14:19.855Z</time></trkpt><trkpt lat="43.781065" lon="11.238415"><ele>47.0</ele><time>2026-03-28T14:14:21.855Z</time></trkpt><trkpt lat="43.7811517" lon="11.2382967"><ele>47.0</ele><time>2026-03-28T14:14:23.855Z</time></trkpt><trkpt lat="43.7812333" lon="11.2382017"><ele>47.0</ele><time>2026-03-28T14:14:25.855Z</time></trkpt><trkpt lat="43.7812967" lon="11.2381"><ele>47.0</ele><time>2026-03-28T14:14:27.854Z</time></trkpt><trkpt lat="43.78134" lon="11.2380133"><ele>47.0</ele><time>2026-03-28T14:14:29.855Z</time></trkpt><trkpt lat="43.781415" lon="11.2379583"><ele>47.0</ele><time>2026-03-28T14:14:31.854Z</time></trkpt><trkpt lat="43.7814883" lon="11.2378883"><ele>47.0</ele><time>2026-03-28T14:14:33.855Z</time></trkpt><trkpt lat="43.7815567" lon="11.2378"><ele>47.0</ele><time>2026-03-28T14:14:35.855Z</time></trkpt><trkpt lat="43.7816233" lon="11.237705"><ele>47.0</ele><time>2026-03-28T14:14:37.855Z</time></trkpt><trkpt lat="43.7816933" lon="11.237615"><ele>47.0</ele><time>2026-03-28T14:14:39.855Z</time></trkpt><trkpt lat="43.781765" lon="11.23752"><ele>47.0</ele><time>2026-03-28T14:14:41.855Z</time></trkpt><trkpt lat="43.7818433" lon="11.237435"><ele>47.0</ele><time>2026-03-28T14:14:43.855Z</time></trkpt><trkpt lat="43.7819283" lon="11.237325"><ele>47.0</ele><time>2026-03-28T14:14:45.855Z</time></trkpt><trkpt lat="43.7820183" lon="11.237235"><ele>47.0</ele><time>2026-03-28T14:14:47.855Z</time></trkpt><trkpt lat="43.78208" lon="11.2371383"><ele>47.0</ele><time>2026-03-28T14:14:49.855Z</time></trkpt><trkpt lat="43.7821367" lon="11.237045"><ele>46.400000000000006</ele><time>2026-03-28T14:14:51.855Z</time></trkpt><trkpt lat="43.782195" lon="11.236955"><ele>45.800000000000004</ele><time>2026-03-28T14:14:53.855Z</time></trkpt><trkpt lat="43.78226" lon="11.236855"><ele>45.2</ele><time>2026-03-28T14:14:55.854Z</time></trkpt><trkpt lat="43.7823233" lon="11.2367583"><ele>44.6</ele><time>2026-03-28T14:14:57.855Z</time></trkpt><trkpt lat="43.782385" lon="11.23667"><ele>44.0</ele><time>2026-03-28T14:14:59.855Z</time></trkpt><trkpt lat="43.7824533" lon="11.2365833"><ele>44.0</ele><time>2026-03-28T14:15:01.855Z</time></trkpt><trkpt lat="43.782515" lon="11.2365"><ele>44.0</ele><time>2026-03-28T14:15:03.854Z</time></trkpt><trkpt lat="43.78258" lon="11.2364117"><ele>44.0</ele><time>2026-03-28T14:15:05.855Z</time></trkpt><trkpt lat="43.7826383" lon="11.2363267"><ele>44.0</ele><time>2026-03-28T14:15:07.855Z</time></trkpt><trkpt lat="43.7826883" lon="11.2362383"><ele>44.0</ele><time>2026-03-28T14:15:09.855Z</time></trkpt><trkpt lat="43.7827433" lon="11.236155"><ele>44.0</ele><time>2026-03-28T14:15:11.855Z</time></trkpt><trkpt lat="43.7827917" lon="11.23607"><ele>44.0</ele><time>2026-03-28T14:15:13.855Z</time></trkpt><trkpt lat="43.7828317" lon="11.2359917"><ele>44.0</ele><time>2026-03-28T14:15:15.855Z</time></trkpt><trkpt lat="43.7828767" lon="11.2359217"><ele>44.0</ele><time>2026-03-28T14:15:17.855Z</time></trkpt><trkpt lat="43.7829217" lon="11.235845"><ele>44.0</ele><time>2026-03-28T14:15:19.855Z</time></trkpt><trkpt lat="43.7829633" lon="11.2357533"><ele>44.0</ele><time>2026-03-28T14:15:21.855Z</time></trkpt><trkpt lat="43.7830333" lon="11.2356083"><ele>44.0</ele><time>2026-03-28T14:15:24.855Z</time></trkpt><trkpt lat="43.7830783" lon="11.2355083"><ele>44.2</ele><time>2026-03-28T14:15:26.855Z</time></trkpt><trkpt lat="43.7831317" lon="11.2354117"><ele>44.400000000000006</ele><time>2026-03-28T14:15:28.855Z</time></trkpt><trkpt lat="43.7831883" lon="11.2353117"><ele>44.6</ele><time>2026-03-28T14:15:30.855Z</time></trkpt><trkpt lat="43.783245" lon="11.2352083"><ele>44.8</ele><time>2026-03-28T14:15:32.854Z</time></trkpt><trkpt lat="43.7833017" lon="11.2351"><ele>45.0</ele><time>2026-03-28T14:15:34.855Z</time></trkpt><trkpt lat="43.783365" lon="11.234995"><ele>45.0</ele><time>2026-03-28T14:15:36.855Z</time></trkpt><trkpt lat="43.7834217" lon="11.2348867"><ele>45.0</ele><time>2026-03-28T14:15:38.855Z</time></trkpt><trkpt lat="43.7834733" lon="11.2347817"><ele>45.0</ele><time>2026-03-28T14:15:40.854Z</time></trkpt><trkpt lat="43.7835233" lon="11.2346867"><ele>45.0</ele><time>2026-03-28T14:15:42.855Z</time></trkpt><trkpt lat="43.7835783" lon="11.2345967"><ele>45.0</ele><time>2026-03-28T14:15:44.855Z</time></trkpt><trkpt lat="43.7836283" lon="11.2344967"><ele>45.0</ele><time>2026-03-28T14:15:46.855Z</time></trkpt><trkpt lat="43.7836783" lon="11.2343967"><ele>45.0</ele><time>2026-03-28T14:15:48.855Z</time></trkpt><trkpt lat="43.78373" lon="11.2343017"><ele>45.0</ele><time>2026-03-28T14:15:50.855Z</time></trkpt><trkpt lat="43.783765" lon="11.2342167"><ele>45.0</ele><time>2026-03-28T14:15:52.855Z</time></trkpt><trkpt lat="43.7838317" lon="11.23408"><ele>45.0</ele><time>2026-03-28T14:15:55.855Z</time></trkpt><trkpt lat="43.783875" lon="11.2339917"><ele>45.0</ele><time>2026-03-28T14:15:57.855Z</time></trkpt><trkpt lat="43.7839133" lon="11.2339017"><ele>45.0</ele><time>2026-03-28T14:15:59.855Z</time></trkpt><trkpt lat="43.783965" lon="11.2338067"><ele>45.0</ele><time>2026-03-28T14:16:01.855Z</time></trkpt><trkpt lat="43.7840167" lon="11.2337033"><ele>45.0</ele><time>2026-03-28T14:16:03.855Z</time></trkpt><trkpt lat="43.7840633" lon="11.23361"><ele>45.0</ele><time>2026-03-28T14:16:05.855Z</time></trkpt><trkpt lat="43.7841317" lon="11.233465"><ele>45.0</ele><time>2026-03-28T14:16:08.855Z</time></trkpt><trkpt lat="43.784165" lon="11.233375"><ele>45.0</ele><time>2026-03-28T14:16:10.855Z</time></trkpt><trkpt lat="43.7842033" lon="11.233295"><ele>45.0</ele><time>2026-03-28T14:16:12.855Z</time></trkpt><trkpt lat="43.7842433" lon="11.2332217"><ele>45.0</ele><time>2026-03-28T14:16:14.855Z</time></trkpt><trkpt lat="43.7842883" lon="11.2331483"><ele>45.0</ele><time>2026-03-28T14:16:16.855Z</time></trkpt><trkpt lat="43.784335" lon="11.2330567"><ele>45.0</ele><time>2026-03-28T14:16:18.855Z</time></trkpt><trkpt lat="43.78439" lon="11.2329833"><ele>45.0</ele><time>2026-03-28T14:16:20.855Z</time></trkpt><trkpt lat="43.7844367" lon="11.2329"><ele>45.0</ele><time>2026-03-28T14:16:22.854Z</time></trkpt><trkpt lat="43.7844967" lon="11.2328117"><ele>45.0</ele><time>2026-03-28T14:16:24.855Z</time></trkpt><trkpt lat="43.7845417" lon="11.2327317"><ele>45.0</ele><time>2026-03-28T14:16:26.855Z</time></trkpt><trkpt lat="43.7845833" lon="11.2326467"><ele>45.0</ele><time>2026-03-28T14:16:28.855Z</time></trkpt><trkpt lat="43.784635" lon="11.232565"><ele>45.0</ele><time>2026-03-28T14:16:30.855Z</time></trkpt><trkpt lat="43.7846883" lon="11.2324833"><ele>45.0</ele><time>2026-03-28T14:16:32.855Z</time></trkpt><trkpt lat="43.7847567" lon="11.2324"><ele>45.0</ele><time>2026-03-28T14:16:34.855Z</time></trkpt><trkpt lat="43.7848083" lon="11.232295"><ele>45.0</ele><time>2026-03-28T14:16:36.855Z</time></trkpt><trkpt lat="43.7848617" lon="11.2321933"><ele>45.166666666666664</ele><time>2026-03-28T14:16:38.855Z</time></trkpt><trkpt lat="43.7849083" lon="11.2320983"><ele>45.333333333333336</ele><time>2026-03-28T14:16:40.855Z</time></trkpt><trkpt lat="43.784945" lon="11.2320017"><ele>45.5</ele><time>2026-03-28T14:16:42.855Z</time></trkpt><trkpt lat="43.784985" lon="11.2319017"><ele>45.66666666666667</ele><time>2026-03-28T14:16:44.855Z</time></trkpt><trkpt lat="43.78504" lon="11.2318167"><ele>45.833333333333336</ele><time>2026-03-28T14:16:46.855Z</time></trkpt><trkpt lat="43.7850883" lon="11.2317333"><ele>46.0</ele><time>2026-03-28T14:16:48.855Z</time></trkpt><trkpt lat="43.7851417" lon="11.2316433"><ele>45.833333333333336</ele><time>2026-03-28T14:16:50.855Z</time></trkpt><trkpt lat="43.78519" lon="11.231555"><ele>45.66666666666667</ele><time>2026-03-28T14:16:52.855Z</time></trkpt><trkpt lat="43.78524" lon="11.2314617"><ele>45.5</ele><time>2026-03-28T14:16:54.855Z</time></trkpt><trkpt lat="43.7852967" lon="11.2313633"><ele>45.333333333333336</ele><time>2026-03-28T14:16:56.855Z</time></trkpt><trkpt lat="43.78535" lon="11.2312683"><ele>45.166666666666664</ele><time>2026-03-28T14:16:58.855Z</time></trkpt><trkpt lat="43.7853917" lon="11.23117"><ele>45.0</ele><time>2026-03-28T14:17:00.855Z</time></trkpt><trkpt lat="43.7854433" lon="11.2310667"><ele>45.0</ele><time>2026-03-28T14:17:02.855Z</time></trkpt><trkpt lat="43.7855017" lon="11.2309667"><ele>45.0</ele><time>2026-03-28T14:17:04.855Z</time></trkpt><trkpt lat="43.78555" lon="11.230865"><ele>45.0</ele><time>2026-03-28T14:17:06.855Z</time></trkpt><trkpt lat="43.7856067" lon="11.2307667"><ele>45.0</ele><time>2026-03-28T14:17:08.855Z</time></trkpt><trkpt lat="43.7856717" lon="11.230655"><ele>45.0</ele><time>2026-03-28T14:17:10.855Z</time></trkpt><trkpt lat="43.785715" lon="11.2305283"><ele>45.2</ele><time>2026-03-28T14:17:12.854Z</time></trkpt><trkpt lat="43.785765" lon="11.2304033"><ele>45.4</ele><time>2026-03-28T14:17:14.855Z</time></trkpt><trkpt lat="43.78583" lon="11.2302933"><ele>45.599999999999994</ele><time>2026-03-28T14:17:16.854Z</time></trkpt><trkpt lat="43.7858917" lon="11.230195"><ele>45.8</ele><time>2026-03-28T14:17:18.855Z</time></trkpt><trkpt lat="43.7859433" lon="11.2300983"><ele>46.0</ele><time>2026-03-28T14:17:20.854Z</time></trkpt><trkpt lat="43.7859917" lon="11.23"><ele>46.16666666666667</ele><time>2026-03-28T14:17:22.854Z</time></trkpt><trkpt lat="43.78603" lon="11.2299"><ele>46.333333333333336</ele><time>2026-03-28T14:17:24.854Z</time></trkpt><trkpt lat="43.78608" lon="11.2298033"><ele>46.5</ele><time>2026-03-28T14:17:26.853Z</time></trkpt><trkpt lat="43.7861367" lon="11.22971"><ele>46.666666666666664</ele><time>2026-03-28T14:17:28.853Z</time></trkpt><trkpt lat="43.786185" lon="11.22962"><ele>46.83333333333333</ele><time>2026-03-28T14:17:30.854Z</time></trkpt><trkpt lat="43.78623" lon="11.2295383"><ele>47.0</ele><time>2026-03-28T14:17:32.854Z</time></trkpt><trkpt lat="43.786285" lon="11.2294617"><ele>47.33333333333333</ele><time>2026-03-28T14:17:34.854Z</time></trkpt><trkpt lat="43.7863417" lon="11.22935"><ele>47.666666666666664</ele><time>2026-03-28T14:17:37.854Z</time></trkpt><trkpt lat="43.786375" lon="11.229265"><ele>48.0</ele><time>2026-03-28T14:17:39.853Z</time></trkpt><trkpt lat="43.7863833" lon="11.2291683"><ele>48.33333333333333</ele><time>2026-03-28T14:17:43.854Z</time></trkpt><trkpt lat="43.786335" lon="11.22908"><ele>48.666666666666664</ele><time>2026-03-28T14:17:49.854Z</time></trkpt><trkpt lat="43.786275" lon="11.2290033"><ele>49.0</ele><time>2026-03-28T14:17:52.854Z</time></trkpt><trkpt lat="43.7862233" lon="11.2289433"><ele>49.166666666666664</ele><time>2026-03-28T14:17:54.854Z</time></trkpt><trkpt lat="43.786165" lon="11.2288933"><ele>49.33333333333333</ele><time>2026-03-28T14:17:56.854Z</time></trkpt><trkpt lat="43.78611" lon="11.228845"><ele>49.5</ele><time>2026-03-28T14:17:58.854Z</time></trkpt><trkpt lat="43.7860567" lon="11.2287983"><ele>49.66666666666667</ele><time>2026-03-28T14:18:00.853Z</time></trkpt><trkpt lat="43.7859917" lon="11.2287433"><ele>49.833333333333336</ele><time>2026-03-28T14:18:03.854Z</time></trkpt><trkpt lat="43.7859333" lon="11.2286933"><ele>50.0</ele><time>2026-03-28T14:18:04.854Z</time></trkpt><trkpt lat="43.7859517" lon="11.2285367"><ele>50.333333333333336</ele><time>2026-03-28T14:18:06.854Z</time></trkpt><trkpt lat="43.7859683" lon="11.2284417"><ele>50.66666666666667</ele><time>2026-03-28T14:18:07.854Z</time></trkpt><trkpt lat="43.78598" lon="11.2283017"><ele>51.0</ele><time>2026-03-28T14:18:09.854Z</time></trkpt><trkpt lat="43.7859767" lon="11.2281983"><ele>51.33333333333333</ele><time>2026-03-28T14:18:11.854Z</time></trkpt><trkpt lat="43.7859733" lon="11.228085"><ele>51.666666666666664</ele><time>2026-03-28T14:18:14.854Z</time></trkpt><trkpt lat="43.7859917" lon="11.227965"><ele>52.0</ele><time>2026-03-28T14:18:17.853Z</time></trkpt><trkpt lat="43.7860117" lon="11.227865"><ele>52.0</ele><time>2026-03-28T14:18:19.854Z</time></trkpt><trkpt lat="43.78604" lon="11.2277667"><ele>52.0</ele><time>2026-03-28T14:18:21.854Z</time></trkpt><trkpt lat="43.7860767" lon="11.2276867"><ele>52.0</ele><time>2026-03-28T14:18:23.854Z</time></trkpt><trkpt lat="43.7861083" lon="11.2275983"><ele>52.0</ele><time>2026-03-28T14:18:25.854Z</time></trkpt><trkpt lat="43.7860717" lon="11.2275067"><ele>52.0</ele><time>2026-03-28T14:18:29.854Z</time></trkpt><trkpt lat="43.7860217" lon="11.22745"><ele>52.0</ele><time>2026-03-28T14:18:31.854Z</time></trkpt><trkpt lat="43.786005" lon="11.2273617"><ele>52.0</ele><time>2026-03-28T14:18:33.854Z</time></trkpt><trkpt lat="43.7860017" lon="11.2272567"><ele>51.33333333333333</ele><time>2026-03-28T14:18:35.854Z</time></trkpt><trkpt lat="43.7860017" lon="11.2271467"><ele>50.666666666666664</ele><time>2026-03-28T14:18:37.854Z</time></trkpt><trkpt lat="43.786" lon="11.2270433"><ele>50.0</ele><time>2026-03-28T14:18:39.854Z</time></trkpt><trkpt lat="43.7859983" lon="11.2269367"><ele>49.33333333333333</ele><time>2026-03-28T14:18:41.854Z</time></trkpt><trkpt lat="43.78601" lon="11.2268367"><ele>48.666666666666664</ele><time>2026-03-28T14:18:43.854Z</time></trkpt><trkpt lat="43.78602" lon="11.2267433"><ele>48.0</ele><time>2026-03-28T14:18:45.854Z</time></trkpt><trkpt lat="43.7860283" lon="11.226635"><ele>48.0</ele><time>2026-03-28T14:18:47.853Z</time></trkpt><trkpt lat="43.786035" lon="11.2265383"><ele>48.0</ele><time>2026-03-28T14:18:49.854Z</time></trkpt><trkpt lat="43.7860467" lon="11.2264217"><ele>48.0</ele><time>2026-03-28T14:18:52.854Z</time></trkpt><trkpt lat="43.78598" lon="11.2263233"><ele>48.0</ele><time>2026-03-28T14:18:55.854Z</time></trkpt><trkpt lat="43.7859483" lon="11.2262367"><ele>48.0</ele><time>2026-03-28T14:18:57.854Z</time></trkpt><trkpt lat="43.7858967" lon="11.2261217"><ele>48.0</ele><time>2026-03-28T14:18:59.854Z</time></trkpt><trkpt lat="43.785905" lon="11.226"><ele>47.5</ele><time>2026-03-28T14:19:03.854Z</time></trkpt><trkpt lat="43.7859383" lon="11.225905"><ele>47.0</ele><time>2026-03-28T14:19:05.854Z</time></trkpt><trkpt lat="43.7859617" lon="11.2257833"><ele>46.5</ele><time>2026-03-28T14:19:07.854Z</time></trkpt><trkpt lat="43.78594" lon="11.2256667"><ele>46.0</ele><time>2026-03-28T14:19:09.854Z</time></trkpt><trkpt lat="43.785895" lon="11.2255667"><ele>45.5</ele><time>2026-03-28T14:19:11.854Z</time></trkpt><trkpt lat="43.78585" lon="11.2254583"><ele>45.0</ele><time>2026-03-28T14:19:13.854Z</time></trkpt><trkpt lat="43.7858067" lon="11.22536"><ele>44.833333333333336</ele><time>2026-03-28T14:19:15.854Z</time></trkpt><trkpt lat="43.7857583" lon="11.2252617"><ele>44.666666666666664</ele><time>2026-03-28T14:19:17.854Z</time></trkpt><trkpt lat="43.7857067" lon="11.2251717"><ele>44.5</ele><time>2026-03-28T14:19:19.854Z</time></trkpt><trkpt lat="43.7856667" lon="11.2250967"><ele>44.33333333333333</ele><time>2026-03-28T14:19:21.854Z</time></trkpt><trkpt lat="43.7856217" lon="11.22501"><ele>44.166666666666664</ele><time>2026-03-28T14:19:23.854Z</time></trkpt><trkpt lat="43.785565" lon="11.22491"><ele>44.0</ele><time>2026-03-28T14:19:25.854Z</time></trkpt><trkpt lat="43.7855067" lon="11.22481"><ele>44.0</ele><time>2026-03-28T14:19:27.854Z</time></trkpt><trkpt lat="43.785445" lon="11.22471"><ele>44.0</ele><time>2026-03-28T14:19:29.854Z</time></trkpt><trkpt lat="43.785375" lon="11.2245933"><ele>44.0</ele><time>2026-03-28T14:19:31.854Z</time></trkpt><trkpt lat="43.7853133" lon="11.224485"><ele>44.0</ele><time>2026-03-28T14:19:33.854Z</time></trkpt><trkpt lat="43.7852417" lon="11.2243833"><ele>44.0</ele><time>2026-03-28T14:19:35.854Z</time></trkpt><trkpt lat="43.7851667" lon="11.22428"><ele>43.800000000000004</ele><time>2026-03-28T14:19:37.854Z</time></trkpt><trkpt lat="43.7850967" lon="11.2241733"><ele>43.6</ele><time>2026-03-28T14:19:39.854Z</time></trkpt><trkpt lat="43.7850333" lon="11.22407"><ele>43.4</ele><time>2026-03-28T14:19:41.854Z</time></trkpt><trkpt lat="43.7849667" lon="11.2239617"><ele>43.2</ele><time>2026-03-28T14:19:43.854Z</time></trkpt><trkpt lat="43.7848917" lon="11.22385"><ele>43.0</ele><time>2026-03-28T14:19:45.854Z</time></trkpt><trkpt lat="43.7848333" lon="11.2237567"><ele>43.0</ele><time>2026-03-28T14:19:47.854Z</time></trkpt><trkpt lat="43.784765" lon="11.2236533"><ele>43.0</ele><time>2026-03-28T14:19:49.854Z</time></trkpt><trkpt lat="43.7847183" lon="11.2235883"><ele>43.0</ele><time>2026-03-28T14:19:50.854Z</time></trkpt><trkpt lat="43.784645" lon="11.223475"><ele>43.0</ele><time>2026-03-28T14:19:52.854Z</time></trkpt><trkpt lat="43.7845883" lon="11.22339"><ele>43.0</ele><time>2026-03-28T14:19:54.854Z</time></trkpt><trkpt lat="43.7845383" lon="11.2233083"><ele>43.0</ele><time>2026-03-28T14:19:57.853Z</time></trkpt><trkpt lat="43.7844817" lon="11.2232233"><ele>43.0</ele><time>2026-03-28T14:20:00.854Z</time></trkpt><trkpt lat="43.7844133" lon="11.223135"><ele>43.0</ele><time>2026-03-28T14:20:04.854Z</time></trkpt><trkpt lat="43.784365" lon="11.2230733"><ele>43.0</ele><time>2026-03-28T14:20:06.854Z</time></trkpt><trkpt lat="43.7843033" lon="11.222995"><ele>43.0</ele><time>2026-03-28T14:20:08.853Z</time></trkpt><trkpt lat="43.7842317" lon="11.222925"><ele>43.0</ele><time>2026-03-28T14:20:10.854Z</time></trkpt><trkpt lat="43.784155" lon="11.2228783"><ele>43.0</ele><time>2026-03-28T14:20:12.854Z</time></trkpt><trkpt lat="43.7840917" lon="11.2228167"><ele>42.833333333333336</ele><time>2026-03-28T14:20:14.854Z</time></trkpt><trkpt lat="43.7840283" lon="11.222755"><ele>42.66666666666667</ele><time>2026-03-28T14:20:16.854Z</time></trkpt><trkpt lat="43.78396" lon="11.22269"><ele>42.5</ele><time>2026-03-28T14:20:18.854Z</time></trkpt><trkpt lat="43.783885" lon="11.2226167"><ele>42.333333333333336</ele><time>2026-03-28T14:20:20.854Z</time></trkpt><trkpt lat="43.783805" lon="11.222545"><ele>42.166666666666664</ele><time>2026-03-28T14:20:22.854Z</time></trkpt><trkpt lat="43.7837283" lon="11.2224683"><ele>42.0</ele><time>2026-03-28T14:20:24.854Z</time></trkpt><trkpt lat="43.783655" lon="11.2224067"><ele>42.0</ele><time>2026-03-28T14:20:26.854Z</time></trkpt><trkpt lat="43.7835867" lon="11.2223333"><ele>42.0</ele><time>2026-03-28T14:20:28.854Z</time></trkpt><trkpt lat="43.783505" lon="11.22225"><ele>42.0</ele><time>2026-03-28T14:20:30.854Z</time></trkpt><trkpt lat="43.7834367" lon="11.2221567"><ele>42.0</ele><time>2026-03-28T14:20:32.854Z</time></trkpt><trkpt lat="43.7833683" lon="11.2220683"><ele>42.0</ele><time>2026-03-28T14:20:34.854Z</time></trkpt><trkpt lat="43.7833017" lon="11.221985"><ele>41.8</ele><time>2026-03-28T14:20:36.854Z</time></trkpt><trkpt lat="43.7832333" lon="11.221905"><ele>41.6</ele><time>2026-03-28T14:20:38.854Z</time></trkpt><trkpt lat="43.7831617" lon="11.2218233"><ele>41.4</ele><time>2026-03-28T14:20:40.854Z</time></trkpt><trkpt lat="43.7830717" lon="11.2217417"><ele>41.199999999999996</ele><time>2026-03-28T14:20:42.854Z</time></trkpt><trkpt lat="43.7830017" lon="11.221665"><ele>41.0</ele><time>2026-03-28T14:20:44.853Z</time></trkpt><trkpt lat="43.7829467" lon="11.221595"><ele>41.0</ele><time>2026-03-28T14:20:46.854Z</time></trkpt><trkpt lat="43.7828833" lon="11.2215367"><ele>41.0</ele><time>2026-03-28T14:20:48.854Z</time></trkpt><trkpt lat="43.782815" lon="11.22147"><ele>41.0</ele><time>2026-03-28T14:20:50.854Z</time></trkpt><trkpt lat="43.7827583" lon="11.22138"><ele>41.0</ele><time>2026-03-28T14:20:52.854Z</time></trkpt><trkpt lat="43.7826783" lon="11.22129"><ele>41.0</ele><time>2026-03-28T14:20:54.854Z</time></trkpt><trkpt lat="43.7826167" lon="11.2212067"><ele>41.0</ele><time>2026-03-28T14:20:56.854Z</time></trkpt><trkpt lat="43.7825567" lon="11.2211317"><ele>41.666666666666664</ele><time>2026-03-28T14:20:58.854Z</time></trkpt><trkpt lat="43.7825" lon="11.2210733"><ele>42.33333333333333</ele><time>2026-03-28T14:21:00.854Z</time></trkpt><trkpt lat="43.7824367" lon="11.221"><ele>43.0</ele><time>2026-03-28T14:21:02.854Z</time></trkpt><trkpt lat="43.78237" lon="11.2209233"><ele>43.666666666666664</ele><time>2026-03-28T14:21:05.853Z</time></trkpt><trkpt lat="43.7823133" lon="11.2208533"><ele>44.333333333333336</ele><time>2026-03-28T14:21:07.853Z</time></trkpt><trkpt lat="43.782275" lon="11.2207783"><ele>45.0</ele><time>2026-03-28T14:21:09.853Z</time></trkpt><trkpt lat="43.7822717" lon="11.220685"><ele>45.0</ele><time>2026-03-28T14:21:13.853Z</time></trkpt><trkpt lat="43.7822567" lon="11.2207883"><ele>45.0</ele><time>2026-03-28T14:21:22.853Z</time></trkpt><trkpt lat="43.7822167" lon="11.2206983"><ele>45.0</ele><time>2026-03-28T14:21:38.853Z</time></trkpt><trkpt lat="43.78221" lon="11.220605"><ele>45.0</ele><time>2026-03-28T14:21:41.853Z</time></trkpt><trkpt lat="43.7821767" lon="11.2204867"><ele>45.0</ele><time>2026-03-28T14:21:44.853Z</time></trkpt><trkpt lat="43.7821467" lon="11.2203833"><ele>45.0</ele><time>2026-03-28T14:21:46.853Z</time></trkpt><trkpt lat="43.7821167" lon="11.2202867"><ele>45.0</ele><time>2026-03-28T14:21:48.853Z</time></trkpt><trkpt lat="43.7820567" lon="11.22021"><ele>45.0</ele><time>2026-03-28T14:21:50.853Z</time></trkpt><trkpt lat="43.7819767" lon="11.220175"><ele>45.0</ele><time>2026-03-28T14:21:52.853Z</time></trkpt><trkpt lat="43.781895" lon="11.2202083"><ele>45.0</ele><time>2026-03-28T14:21:54.853Z</time></trkpt><trkpt lat="43.78184" lon="11.2201617"><ele>45.0</ele><time>2026-03-28T14:21:56.853Z</time></trkpt><trkpt lat="43.7817833" lon="11.22009"><ele>45.0</ele><time>2026-03-28T14:21:58.853Z</time></trkpt><trkpt lat="43.781725" lon="11.2200117"><ele>45.0</ele><time>2026-03-28T14:22:00.853Z</time></trkpt><trkpt lat="43.7816617" lon="11.219925"><ele>45.0</ele><time>2026-03-28T14:22:02.853Z</time></trkpt><trkpt lat="43.7816067" lon="11.219855"><ele>45.0</ele><time>2026-03-28T14:22:04.853Z</time></trkpt><trkpt lat="43.781535" lon="11.2198017"><ele>45.0</ele><time>2026-03-28T14:22:06.853Z</time></trkpt><trkpt lat="43.7814617" lon="11.2197483"><ele>45.0</ele><time>2026-03-28T14:22:08.853Z</time></trkpt><trkpt lat="43.78139" lon="11.2196917"><ele>45.0</ele><time>2026-03-28T14:22:10.853Z</time></trkpt><trkpt lat="43.781325" lon="11.2196467"><ele>45.0</ele><time>2026-03-28T14:22:12.853Z</time></trkpt><trkpt lat="43.7812333" lon="11.219575"><ele>45.0</ele><time>2026-03-28T14:22:14.853Z</time></trkpt><trkpt lat="43.7811367" lon="11.2195267"><ele>45.0</ele><time>2026-03-28T14:22:17.853Z</time></trkpt><trkpt lat="43.7810583" lon="11.2194583"><ele>45.0</ele><time>2026-03-28T14:22:19.852Z</time></trkpt><trkpt lat="43.7809933" lon="11.2193733"><ele>45.0</ele><time>2026-03-28T14:22:21.853Z</time></trkpt><trkpt lat="43.78093" lon="11.2192817"><ele>44.8</ele><time>2026-03-28T14:22:23.853Z</time></trkpt><trkpt lat="43.7808817" lon="11.2191833"><ele>44.6</ele><time>2026-03-28T14:22:25.853Z</time></trkpt><trkpt lat="43.7808117" lon="11.2190717"><ele>44.400000000000006</ele><time>2026-03-28T14:22:27.853Z</time></trkpt><trkpt lat="43.7807633" lon="11.2189683"><ele>44.2</ele><time>2026-03-28T14:22:29.853Z</time></trkpt><trkpt lat="43.780715" lon="11.2188833"><ele>44.0</ele><time>2026-03-28T14:22:31.853Z</time></trkpt><trkpt lat="43.7806517" lon="11.21879"><ele>43.666666666666664</ele><time>2026-03-28T14:22:33.853Z</time></trkpt><trkpt lat="43.7805683" lon="11.2186983"><ele>43.33333333333333</ele><time>2026-03-28T14:22:35.852Z</time></trkpt><trkpt lat="43.7805" lon="11.2186333"><ele>43.0</ele><time>2026-03-28T14:22:37.852Z</time></trkpt><trkpt lat="43.780445" lon="11.218585"><ele>42.666666666666664</ele><time>2026-03-28T14:22:39.853Z</time></trkpt><trkpt lat="43.7803867" lon="11.2185383"><ele>42.333333333333336</ele><time>2026-03-28T14:22:44.853Z</time></trkpt><trkpt lat="43.78033" lon="11.2184967"><ele>42.0</ele><time>2026-03-28T14:22:49.853Z</time></trkpt><trkpt lat="43.7802583" lon="11.2184417"><ele>42.0</ele><time>2026-03-28T14:22:54.853Z</time></trkpt><trkpt lat="43.7802017" lon="11.2184"><ele>42.0</ele><time>2026-03-28T14:22:57.853Z</time></trkpt><trkpt lat="43.7801417" lon="11.2183583"><ele>42.0</ele><time>2026-03-28T14:23:01.852Z</time></trkpt><trkpt lat="43.780075" lon="11.21831"><ele>42.0</ele><time>2026-03-28T14:23:06.853Z</time></trkpt><trkpt lat="43.7799917" lon="11.2182517"><ele>42.0</ele><time>2026-03-28T14:23:10.853Z</time></trkpt><trkpt lat="43.7799283" lon="11.2182067"><ele>42.0</ele><time>2026-03-28T14:23:14.852Z</time></trkpt><trkpt lat="43.7798583" lon="11.218155"><ele>41.666666666666664</ele><time>2026-03-28T14:23:17.853Z</time></trkpt><trkpt lat="43.7797883" lon="11.2181033"><ele>41.333333333333336</ele><time>2026-03-28T14:23:20.853Z</time></trkpt><trkpt lat="43.7797167" lon="11.21805"><ele>41.0</ele><time>2026-03-28T14:23:23.853Z</time></trkpt><trkpt lat="43.7796583" lon="11.2180083"><ele>40.66666666666667</ele><time>2026-03-28T14:23:25.853Z</time></trkpt><trkpt lat="43.7795817" lon="11.2179533"><ele>40.333333333333336</ele><time>2026-03-28T14:23:28.853Z</time></trkpt><trkpt lat="43.77952" lon="11.2179083"><ele>40.0</ele><time>2026-03-28T14:23:30.853Z</time></trkpt><trkpt lat="43.77954" lon="11.217815"><ele>40.0</ele><time>2026-03-28T14:23:34.853Z</time></trkpt><trkpt lat="43.7796083" lon="11.2177067"><ele>40.0</ele><time>2026-03-28T14:23:36.853Z</time></trkpt><trkpt lat="43.779665" lon="11.2176167"><ele>40.0</ele><time>2026-03-28T14:23:38.853Z</time></trkpt><trkpt lat="43.7797167" lon="11.2175267"><ele>40.0</ele><time>2026-03-28T14:23:40.853Z</time></trkpt><trkpt lat="43.77974" lon="11.217415"><ele>40.0</ele><time>2026-03-28T14:23:42.853Z</time></trkpt><trkpt lat="43.7797867" lon="11.21732"><ele>40.0</ele><time>2026-03-28T14:23:44.853Z</time></trkpt><trkpt lat="43.7798233" lon="11.217225"><ele>40.2</ele><time>2026-03-28T14:23:46.853Z</time></trkpt><trkpt lat="43.7798567" lon="11.217125"><ele>40.4</ele><time>2026-03-28T14:23:48.853Z</time></trkpt><trkpt lat="43.7798983" lon="11.2170267"><ele>40.599999999999994</ele><time>2026-03-28T14:23:50.853Z</time></trkpt><trkpt lat="43.77995" lon="11.2169133"><ele>40.8</ele><time>2026-03-28T14:23:52.853Z</time></trkpt><trkpt lat="43.7800217" lon="11.2167433"><ele>41.0</ele><time>2026-03-28T14:23:55.853Z</time></trkpt><trkpt lat="43.7800633" lon="11.21663"><ele>41.0</ele><time>2026-03-28T14:23:57.853Z</time></trkpt><trkpt lat="43.7801067" lon="11.2165283"><ele>41.0</ele><time>2026-03-28T14:23:59.853Z</time></trkpt><trkpt lat="43.78015" lon="11.2164333"><ele>41.0</ele><time>2026-03-28T14:24:01.852Z</time></trkpt><trkpt lat="43.780195" lon="11.21634"><ele>41.0</ele><time>2026-03-28T14:24:03.853Z</time></trkpt><trkpt lat="43.7802317" lon="11.2162283"><ele>41.0</ele><time>2026-03-28T14:24:05.853Z</time></trkpt><trkpt lat="43.78028" lon="11.216115"><ele>41.0</ele><time>2026-03-28T14:24:07.853Z</time></trkpt><trkpt lat="43.780325" lon="11.2160033"><ele>40.666666666666664</ele><time>2026-03-28T14:24:09.853Z</time></trkpt><trkpt lat="43.780365" lon="11.2159167"><ele>40.33333333333333</ele><time>2026-03-28T14:24:11.853Z</time></trkpt><trkpt lat="43.780405" lon="11.2158283"><ele>40.0</ele><time>2026-03-28T14:24:13.853Z</time></trkpt><trkpt lat="43.7804433" lon="11.2157367"><ele>39.666666666666664</ele><time>2026-03-28T14:24:15.853Z</time></trkpt><trkpt lat="43.7804833" lon="11.21564"><ele>39.333333333333336</ele><time>2026-03-28T14:24:17.853Z</time></trkpt><trkpt lat="43.7805217" lon="11.2155467"><ele>39.0</ele><time>2026-03-28T14:24:19.853Z</time></trkpt><trkpt lat="43.780565" lon="11.2154467"><ele>39.0</ele><time>2026-03-28T14:24:21.853Z</time></trkpt><trkpt lat="43.7806083" lon="11.215335"><ele>39.0</ele><time>2026-03-28T14:24:23.853Z</time></trkpt><trkpt lat="43.7806517" lon="11.2151667"><ele>39.0</ele><time>2026-03-28T14:24:25.853Z</time></trkpt><trkpt lat="43.78069" lon="11.2150317"><ele>39.0</ele><time>2026-03-28T14:24:27.853Z</time></trkpt><trkpt lat="43.780735" lon="11.2149117"><ele>39.0</ele><time>2026-03-28T14:24:29.852Z</time></trkpt><trkpt lat="43.78078" lon="11.2148033"><ele>39.2</ele><time>2026-03-28T14:24:31.853Z</time></trkpt><trkpt lat="43.7808433" lon="11.2146817"><ele>39.4</ele><time>2026-03-28T14:24:33.853Z</time></trkpt><trkpt lat="43.7809" lon="11.2145683"><ele>39.6</ele><time>2026-03-28T14:24:35.853Z</time></trkpt><trkpt lat="43.7809283" lon="11.2144767"><ele>39.8</ele><time>2026-03-28T14:24:37.852Z</time></trkpt><trkpt lat="43.7809767" lon="11.2143617"><ele>40.0</ele><time>2026-03-28T14:24:40.852Z</time></trkpt><trkpt lat="43.7810183" lon="11.21426"><ele>39.42857142857143</ele><time>2026-03-28T14:24:44.851Z</time></trkpt><trkpt lat="43.7810583" lon="11.214165"><ele>38.85714285714286</ele><time>2026-03-28T14:24:47.852Z</time></trkpt><trkpt lat="43.7810933" lon="11.21408"><ele>38.28571428571429</ele><time>2026-03-28T14:24:49.852Z</time></trkpt><trkpt lat="43.7811383" lon="11.21398"><ele>37.714285714285715</ele><time>2026-03-28T14:24:52.852Z</time></trkpt><trkpt lat="43.7811733" lon="11.2139"><ele>37.142857142857146</ele><time>2026-03-28T14:24:54.852Z</time></trkpt><trkpt lat="43.7812083" lon="11.21382"><ele>36.57142857142858</ele><time>2026-03-28T14:24:56.852Z</time></trkpt><trkpt lat="43.7812433" lon="11.2137383"><ele>36.0</ele><time>2026-03-28T14:24:58.852Z</time></trkpt><trkpt lat="43.7812767" lon="11.2136617"><ele>36.0</ele><time>2026-03-28T14:25:00.852Z</time></trkpt><trkpt lat="43.7813183" lon="11.213575"><ele>36.0</ele><time>2026-03-28T14:25:02.852Z</time></trkpt><trkpt lat="43.7813617" lon="11.213485"><ele>36.0</ele><time>2026-03-28T14:25:04.852Z</time></trkpt><trkpt lat="43.781405" lon="11.213405"><ele>36.0</ele><time>2026-03-28T14:25:06.852Z</time></trkpt><trkpt lat="43.781445" lon="11.2133217"><ele>36.0</ele><time>2026-03-28T14:25:08.852Z</time></trkpt><trkpt lat="43.7814933" lon="11.21322"><ele>36.0</ele><time>2026-03-28T14:25:11.852Z</time></trkpt><trkpt lat="43.78154" lon="11.2131267"><ele>36.5</ele><time>2026-03-28T14:25:14.851Z</time></trkpt><trkpt lat="43.7815883" lon="11.2130267"><ele>37.0</ele><time>2026-03-28T14:25:17.851Z</time></trkpt><trkpt lat="43.78162" lon="11.2129483"><ele>37.5</ele><time>2026-03-28T14:25:19.852Z</time></trkpt><trkpt lat="43.7816617" lon="11.212865"><ele>38.0</ele><time>2026-03-28T14:25:22.851Z</time></trkpt><trkpt lat="43.7817017" lon="11.2127833"><ele>38.5</ele><time>2026-03-28T14:25:25.852Z</time></trkpt><trkpt lat="43.7817517" lon="11.2126817"><ele>39.0</ele><time>2026-03-28T14:25:28.851Z</time></trkpt><trkpt lat="43.7817867" lon="11.212605"><ele>39.0</ele><time>2026-03-28T14:25:30.852Z</time></trkpt><trkpt lat="43.7818333" lon="11.2125183"><ele>39.0</ele><time>2026-03-28T14:25:32.852Z</time></trkpt><trkpt lat="43.7818833" lon="11.21242"><ele>39.0</ele><time>2026-03-28T14:25:34.852Z</time></trkpt><trkpt lat="43.781965" lon="11.2122517"><ele>39.0</ele><time>2026-03-28T14:25:37.852Z</time></trkpt><trkpt lat="43.7820167" lon="11.212145"><ele>39.0</ele><time>2026-03-28T14:25:39.852Z</time></trkpt><trkpt lat="43.78206" lon="11.2120467"><ele>37.8</ele><time>2026-03-28T14:25:41.852Z</time></trkpt><trkpt lat="43.7821033" lon="11.2119433"><ele>36.599999999999994</ele><time>2026-03-28T14:25:43.852Z</time></trkpt><trkpt lat="43.7821533" lon="11.2118367"><ele>35.4</ele><time>2026-03-28T14:25:45.851Z</time></trkpt><trkpt lat="43.78221" lon="11.2117283"><ele>34.199999999999996</ele><time>2026-03-28T14:25:47.852Z</time></trkpt><trkpt lat="43.782255" lon="11.2116133"><ele>33.0</ele><time>2026-03-28T14:25:49.852Z</time></trkpt><trkpt lat="43.7823017" lon="11.2115017"><ele>33.666666666666664</ele><time>2026-03-28T14:25:51.852Z</time></trkpt><trkpt lat="43.7823483" lon="11.211385"><ele>34.333333333333336</ele><time>2026-03-28T14:25:53.852Z</time></trkpt><trkpt lat="43.7823933" lon="11.2112733"><ele>35.0</ele><time>2026-03-28T14:25:55.852Z</time></trkpt><trkpt lat="43.7824267" lon="11.2111667"><ele>35.66666666666667</ele><time>2026-03-28T14:25:57.852Z</time></trkpt><trkpt lat="43.7824583" lon="11.2110733"><ele>36.333333333333336</ele><time>2026-03-28T14:25:59.852Z</time></trkpt><trkpt lat="43.7824917" lon="11.21098"><ele>37.0</ele><time>2026-03-28T14:26:01.851Z</time></trkpt><trkpt lat="43.7825283" lon="11.210895"><ele>37.0</ele><time>2026-03-28T14:26:03.852Z</time></trkpt><trkpt lat="43.7825567" lon="11.2108117"><ele>37.0</ele><time>2026-03-28T14:26:05.852Z</time></trkpt><trkpt lat="43.78262" lon="11.21069"><ele>37.0</ele><time>2026-03-28T14:26:08.852Z</time></trkpt><trkpt lat="43.7826883" lon="11.21061"><ele>37.0</ele><time>2026-03-28T14:26:10.852Z</time></trkpt><trkpt lat="43.782745" lon="11.2105167"><ele>37.0</ele><time>2026-03-28T14:26:12.852Z</time></trkpt><trkpt lat="43.782795" lon="11.2104267"><ele>37.0</ele><time>2026-03-28T14:26:14.852Z</time></trkpt><trkpt lat="43.7828267" lon="11.2103383"><ele>36.66666666666667</ele><time>2026-03-28T14:26:16.852Z</time></trkpt><trkpt lat="43.78287" lon="11.2102217"><ele>36.333333333333336</ele><time>2026-03-28T14:26:19.852Z</time></trkpt><trkpt lat="43.7829017" lon="11.2101333"><ele>36.0</ele><time>2026-03-28T14:26:21.851Z</time></trkpt><trkpt lat="43.7829417" lon="11.2100217"><ele>35.666666666666664</ele><time>2026-03-28T14:26:23.852Z</time></trkpt><trkpt lat="43.7829883" lon="11.2099133"><ele>35.33333333333333</ele><time>2026-03-28T14:26:25.852Z</time></trkpt><trkpt lat="43.7830433" lon="11.2098183"><ele>35.0</ele><time>2026-03-28T14:26:27.852Z</time></trkpt><trkpt lat="43.7831067" lon="11.20973"><ele>35.666666666666664</ele><time>2026-03-28T14:26:29.852Z</time></trkpt><trkpt lat="43.783165" lon="11.2096367"><ele>36.33333333333333</ele><time>2026-03-28T14:26:31.852Z</time></trkpt><trkpt lat="43.7832133" lon="11.2095467"><ele>37.0</ele><time>2026-03-28T14:26:33.852Z</time></trkpt><trkpt lat="43.78326" lon="11.2094583"><ele>37.666666666666664</ele><time>2026-03-28T14:26:35.852Z</time></trkpt><trkpt lat="43.7833033" lon="11.2093533"><ele>38.333333333333336</ele><time>2026-03-28T14:26:37.852Z</time></trkpt><trkpt lat="43.7833383" lon="11.2092333"><ele>39.0</ele><time>2026-03-28T14:26:39.852Z</time></trkpt><trkpt lat="43.7833633" lon="11.2091117"><ele>39.333333333333336</ele><time>2026-03-28T14:26:41.852Z</time></trkpt><trkpt lat="43.7833917" lon="11.20899"><ele>39.666666666666664</ele><time>2026-03-28T14:26:43.852Z</time></trkpt><trkpt lat="43.7834117" lon="11.2088817"><ele>40.0</ele><time>2026-03-28T14:26:45.851Z</time></trkpt><trkpt lat="43.783435" lon="11.20878"><ele>40.33333333333333</ele><time>2026-03-28T14:26:47.852Z</time></trkpt><trkpt lat="43.783475" lon="11.20868"><ele>40.666666666666664</ele><time>2026-03-28T14:26:49.851Z</time></trkpt><trkpt lat="43.78352" lon="11.2085817"><ele>41.0</ele><time>2026-03-28T14:26:51.851Z</time></trkpt><trkpt lat="43.7835683" lon="11.2084817"><ele>40.5</ele><time>2026-03-28T14:26:53.851Z</time></trkpt><trkpt lat="43.783615" lon="11.20839"><ele>40.0</ele><time>2026-03-28T14:26:55.852Z</time></trkpt><trkpt lat="43.7836533" lon="11.2082967"><ele>39.5</ele><time>2026-03-28T14:26:57.852Z</time></trkpt><trkpt lat="43.78369" lon="11.2082083"><ele>39.0</ele><time>2026-03-28T14:26:59.852Z</time></trkpt><trkpt lat="43.7837417" lon="11.2081017"><ele>38.5</ele><time>2026-03-28T14:27:02.852Z</time></trkpt><trkpt lat="43.7837783" lon="11.2079833"><ele>38.0</ele><time>2026-03-28T14:27:05.852Z</time></trkpt><trkpt lat="43.7838183" lon="11.2078567"><ele>38.0</ele><time>2026-03-28T14:27:08.852Z</time></trkpt><trkpt lat="43.78385" lon="11.2077433"><ele>38.0</ele><time>2026-03-28T14:27:10.852Z</time></trkpt><trkpt lat="43.7838917" lon="11.20765"><ele>38.0</ele><time>2026-03-28T14:27:12.852Z</time></trkpt><trkpt lat="43.7839367" lon="11.2075517"><ele>38.0</ele><time>2026-03-28T14:27:14.852Z</time></trkpt><trkpt lat="43.783985" lon="11.2074517"><ele>38.0</ele><time>2026-03-28T14:27:16.852Z</time></trkpt><trkpt lat="43.7840383" lon="11.20734"><ele>38.0</ele><time>2026-03-28T14:27:18.852Z</time></trkpt><trkpt lat="43.7840817" lon="11.2072483"><ele>38.4</ele><time>2026-03-28T14:27:20.852Z</time></trkpt><trkpt lat="43.78413" lon="11.207145"><ele>38.8</ele><time>2026-03-28T14:27:22.851Z</time></trkpt><trkpt lat="43.78417" lon="11.2070417"><ele>39.2</ele><time>2026-03-28T14:27:24.852Z</time></trkpt><trkpt lat="43.7842083" lon="11.2069433"><ele>39.6</ele><time>2026-03-28T14:27:26.852Z</time></trkpt><trkpt lat="43.784275" lon="11.2068267"><ele>40.0</ele><time>2026-03-28T14:27:28.852Z</time></trkpt><trkpt lat="43.7843333" lon="11.2067333"><ele>40.0</ele><time>2026-03-28T14:27:30.852Z</time></trkpt><trkpt lat="43.7843767" lon="11.2066333"><ele>40.0</ele><time>2026-03-28T14:27:32.852Z</time></trkpt><trkpt lat="43.784425" lon="11.2065333"><ele>40.0</ele><time>2026-03-28T14:27:34.852Z</time></trkpt><trkpt lat="43.784475" lon="11.2064267"><ele>40.0</ele><time>2026-03-28T14:27:36.852Z</time></trkpt><trkpt lat="43.7845133" lon="11.2063333"><ele>40.0</ele><time>2026-03-28T14:27:38.851Z</time></trkpt><trkpt lat="43.7845633" lon="11.206225"><ele>40.0</ele><time>2026-03-28T14:27:40.852Z</time></trkpt><trkpt lat="43.7846183" lon="11.2061167"><ele>40.0</ele><time>2026-03-28T14:27:42.852Z</time></trkpt><trkpt lat="43.784675" lon="11.20601"><ele>40.0</ele><time>2026-03-28T14:27:44.852Z</time></trkpt><trkpt lat="43.7847283" lon="11.2059017"><ele>40.0</ele><time>2026-03-28T14:27:46.852Z</time></trkpt><trkpt lat="43.7847733" lon="11.2058017"><ele>40.0</ele><time>2026-03-28T14:27:48.852Z</time></trkpt><trkpt lat="43.78482" lon="11.2057017"><ele>40.0</ele><time>2026-03-28T14:27:50.851Z</time></trkpt><trkpt lat="43.7848683" lon="11.2056"><ele>40.0</ele><time>2026-03-28T14:27:52.852Z</time></trkpt><trkpt lat="43.7849217" lon="11.2054967"><ele>39.833333333333336</ele><time>2026-03-28T14:27:54.852Z</time></trkpt><trkpt lat="43.7849683" lon="11.2054"><ele>39.66666666666667</ele><time>2026-03-28T14:27:56.852Z</time></trkpt><trkpt lat="43.7850017" lon="11.2053183"><ele>39.5</ele><time>2026-03-28T14:27:58.852Z</time></trkpt><trkpt lat="43.7850433" lon="11.2052217"><ele>39.333333333333336</ele><time>2026-03-28T14:28:00.852Z</time></trkpt><trkpt lat="43.7850767" lon="11.2051267"><ele>39.166666666666664</ele><time>2026-03-28T14:28:02.852Z</time></trkpt><trkpt lat="43.7850867" lon="11.2050217"><ele>39.0</ele><time>2026-03-28T14:28:04.851Z</time></trkpt><trkpt lat="43.7850633" lon="11.2049333"><ele>39.0</ele><time>2026-03-28T14:28:06.851Z</time></trkpt><trkpt lat="43.7849883" lon="11.2049117"><ele>39.0</ele><time>2026-03-28T14:28:08.85Z</time></trkpt><trkpt lat="43.78491" lon="11.204885"><ele>39.0</ele><time>2026-03-28T14:28:10.851Z</time></trkpt><trkpt lat="43.784815" lon="11.2048467"><ele>39.0</ele><time>2026-03-28T14:28:12.851Z</time></trkpt><trkpt lat="43.7847317" lon="11.204815"><ele>39.0</ele><time>2026-03-28T14:28:14.851Z</time></trkpt><trkpt lat="43.7846433" lon="11.20479"><ele>39.0</ele><time>2026-03-28T14:28:16.851Z</time></trkpt><trkpt lat="43.784565" lon="11.2047583"><ele>39.2</ele><time>2026-03-28T14:28:18.851Z</time></trkpt><trkpt lat="43.7844667" lon="11.2047167"><ele>39.4</ele><time>2026-03-28T14:28:20.851Z</time></trkpt><trkpt lat="43.78437" lon="11.2046817"><ele>39.6</ele><time>2026-03-28T14:28:22.851Z</time></trkpt><trkpt lat="43.7842767" lon="11.2046567"><ele>39.8</ele><time>2026-03-28T14:28:24.851Z</time></trkpt><trkpt lat="43.78418" lon="11.204615"><ele>40.0</ele><time>2026-03-28T14:28:26.851Z</time></trkpt><trkpt lat="43.7840833" lon="11.2045767"><ele>40.0</ele><time>2026-03-28T14:28:28.851Z</time></trkpt><trkpt lat="43.7839767" lon="11.2045283"><ele>40.0</ele><time>2026-03-28T14:28:30.851Z</time></trkpt><trkpt lat="43.7838833" lon="11.2044917"><ele>40.0</ele><time>2026-03-28T14:28:32.851Z</time></trkpt><trkpt lat="43.7837967" lon="11.204465"><ele>40.0</ele><time>2026-03-28T14:28:34.85Z</time></trkpt><trkpt lat="43.7836933" lon="11.2044167"><ele>40.0</ele><time>2026-03-28T14:28:36.85Z</time></trkpt><trkpt lat="43.7835883" lon="11.204365"><ele>40.0</ele><time>2026-03-28T14:28:38.851Z</time></trkpt><trkpt lat="43.7834883" lon="11.2042967"><ele>40.0</ele><time>2026-03-28T14:28:40.851Z</time></trkpt><trkpt lat="43.7833867" lon="11.2042567"><ele>40.0</ele><time>2026-03-28T14:28:42.851Z</time></trkpt><trkpt lat="43.7832833" lon="11.20423"><ele>40.0</ele><time>2026-03-28T14:28:44.851Z</time></trkpt><trkpt lat="43.783185" lon="11.2042067"><ele>40.0</ele><time>2026-03-28T14:28:46.85Z</time></trkpt><trkpt lat="43.7830983" lon="11.2041767"><ele>40.0</ele><time>2026-03-28T14:28:48.851Z</time></trkpt><trkpt lat="43.7830017" lon="11.2041433"><ele>40.0</ele><time>2026-03-28T14:28:50.851Z</time></trkpt><trkpt lat="43.782895" lon="11.204105"><ele>40.0</ele><time>2026-03-28T14:28:52.851Z</time></trkpt><trkpt lat="43.7828" lon="11.2040617"><ele>40.0</ele><time>2026-03-28T14:28:54.85Z</time></trkpt><trkpt lat="43.7826983" lon="11.20403"><ele>40.0</ele><time>2026-03-28T14:28:56.851Z</time></trkpt><trkpt lat="43.7825933" lon="11.2039933"><ele>39.8</ele><time>2026-03-28T14:28:58.851Z</time></trkpt><trkpt lat="43.7824933" lon="11.2039667"><ele>39.6</ele><time>2026-03-28T14:29:00.851Z</time></trkpt><trkpt lat="43.782395" lon="11.20394"><ele>39.4</ele><time>2026-03-28T14:29:02.851Z</time></trkpt><trkpt lat="43.7823033" lon="11.2039567"><ele>39.2</ele><time>2026-03-28T14:29:04.851Z</time></trkpt><trkpt lat="43.7822483" lon="11.20405"><ele>39.0</ele><time>2026-03-28T14:29:06.851Z</time></trkpt><trkpt lat="43.7822233" lon="11.2041733"><ele>39.0</ele><time>2026-03-28T14:29:08.851Z</time></trkpt><trkpt lat="43.782195" lon="11.2043117"><ele>39.0</ele><time>2026-03-28T14:29:10.85Z</time></trkpt><trkpt lat="43.7821567" lon="11.20445"><ele>39.0</ele><time>2026-03-28T14:29:12.851Z</time></trkpt><trkpt lat="43.782135" lon="11.2045967"><ele>39.0</ele><time>2026-03-28T14:29:14.85Z</time></trkpt><trkpt lat="43.78212" lon="11.2047317"><ele>39.0</ele><time>2026-03-28T14:29:16.85Z</time></trkpt><trkpt lat="43.7820967" lon="11.204815"><ele>39.0</ele><time>2026-03-28T14:29:18.851Z</time></trkpt><trkpt lat="43.7820517" lon="11.2047483"><ele>39.0</ele><time>2026-03-28T14:29:23.851Z</time></trkpt><trkpt lat="43.7820417" lon="11.2046583"><ele>39.0</ele><time>2026-03-28T14:29:26.851Z</time></trkpt><trkpt lat="43.7819983" lon="11.2045733"><ele>39.0</ele><time>2026-03-28T14:30:19.851Z</time></trkpt><trkpt lat="43.7819133" lon="11.204565"><ele>39.0</ele><time>2026-03-28T14:30:23.851Z</time></trkpt><trkpt lat="43.781825" lon="11.2045267"><ele>39.0</ele><time>2026-03-28T14:30:26.851Z</time></trkpt><trkpt lat="43.7817533" lon="11.2044467"><ele>39.0</ele><time>2026-03-28T14:30:29.851Z</time></trkpt><trkpt lat="43.7816917" lon="11.204415"><ele>39.0</ele><time>2026-03-28T14:30:32.851Z</time></trkpt><trkpt lat="43.78161" lon="11.20438"><ele>39.0</ele><time>2026-03-28T14:30:46.851Z</time></trkpt><trkpt lat="43.7815367" lon="11.2043817"><ele>39.0</ele><time>2026-03-28T14:30:48.851Z</time></trkpt><trkpt lat="43.7814683" lon="11.2044067"><ele>39.0</ele><time>2026-03-28T14:30:50.851Z</time></trkpt><trkpt lat="43.7814033" lon="11.2044233"><ele>39.0</ele><time>2026-03-28T14:30:52.851Z</time></trkpt><trkpt lat="43.7813367" lon="11.2044433"><ele>39.0</ele><time>2026-03-28T14:30:54.851Z</time></trkpt><trkpt lat="43.7812633" lon="11.2044733"><ele>39.0</ele><time>2026-03-28T14:30:56.851Z</time></trkpt><trkpt lat="43.7812" lon="11.2044917"><ele>39.0</ele><time>2026-03-28T14:30:58.851Z</time></trkpt><trkpt lat="43.7811267" lon="11.204515"><ele>39.0</ele><time>2026-03-28T14:31:01.851Z</time></trkpt><trkpt lat="43.7810433" lon="11.2045383"><ele>39.0</ele><time>2026-03-28T14:31:03.851Z</time></trkpt><trkpt lat="43.78097" lon="11.20456"><ele>39.0</ele><time>2026-03-28T14:31:05.851Z</time></trkpt><trkpt lat="43.7808883" lon="11.2045833"><ele>39.0</ele><time>2026-03-28T14:31:08.851Z</time></trkpt><trkpt lat="43.7808" lon="11.20461"><ele>38.833333333333336</ele><time>2026-03-28T14:31:11.851Z</time></trkpt><trkpt lat="43.7807117" lon="11.204635"><ele>38.666666666666664</ele><time>2026-03-28T14:31:14.851Z</time></trkpt><trkpt lat="43.7806233" lon="11.20466"><ele>38.5</ele><time>2026-03-28T14:31:17.851Z</time></trkpt><trkpt lat="43.7805583" lon="11.2046767"><ele>38.33333333333333</ele><time>2026-03-28T14:31:19.851Z</time></trkpt><trkpt lat="43.7804767" lon="11.2047033"><ele>38.166666666666664</ele><time>2026-03-28T14:31:21.85Z</time></trkpt><trkpt lat="43.78039" lon="11.20473"><ele>38.0</ele><time>2026-03-28T14:31:23.851Z</time></trkpt><trkpt lat="43.780305" lon="11.2047517"><ele>38.0</ele><time>2026-03-28T14:31:25.85Z</time></trkpt><trkpt lat="43.7802133" lon="11.2047833"><ele>38.0</ele><time>2026-03-28T14:31:27.85Z</time></trkpt><trkpt lat="43.7801267" lon="11.2048083"><ele>38.0</ele><time>2026-03-28T14:31:29.85Z</time></trkpt><trkpt lat="43.7800417" lon="11.20483"><ele>38.0</ele><time>2026-03-28T14:31:31.85Z</time></trkpt><trkpt lat="43.7799633" lon="11.2048633"><ele>38.0</ele><time>2026-03-28T14:31:33.85Z</time></trkpt><trkpt lat="43.779895" lon="11.2048933"><ele>38.0</ele><time>2026-03-28T14:31:35.85Z</time></trkpt><trkpt lat="43.7798333" lon="11.2049233"><ele>38.0</ele><time>2026-03-28T14:31:37.85Z</time></trkpt><trkpt lat="43.779755" lon="11.2049283"><ele>38.0</ele><time>2026-03-28T14:31:39.85Z</time></trkpt><trkpt lat="43.77967" lon="11.2049483"><ele>38.0</ele><time>2026-03-28T14:31:41.85Z</time></trkpt><trkpt lat="43.7796067" lon="11.204845"><ele>38.0</ele><time>2026-03-28T14:31:45.85Z</time></trkpt><trkpt lat="43.77961" lon="11.2047383"><ele>38.0</ele><time>2026-03-28T14:31:47.85Z</time></trkpt><trkpt lat="43.7796117" lon="11.204635"><ele>38.0</ele><time>2026-03-28T14:31:49.85Z</time></trkpt><trkpt lat="43.7796217" lon="11.2045433"><ele>38.0</ele><time>2026-03-28T14:31:51.85Z</time></trkpt><trkpt lat="43.7796333" lon="11.20444"><ele>38.0</ele><time>2026-03-28T14:31:53.85Z</time></trkpt><trkpt lat="43.7796483" lon="11.2043383"><ele>38.0</ele><time>2026-03-28T14:31:55.85Z</time></trkpt><trkpt lat="43.7796583" lon="11.2042367"><ele>38.0</ele><time>2026-03-28T14:31:57.85Z</time></trkpt><trkpt lat="43.77967" lon="11.204135"><ele>38.0</ele><time>2026-03-28T14:31:59.85Z</time></trkpt><trkpt lat="43.77968" lon="11.204035"><ele>38.0</ele><time>2026-03-28T14:32:01.85Z</time></trkpt><trkpt lat="43.7797067" lon="11.20391"><ele>38.33333333333333</ele><time>2026-03-28T14:32:04.849Z</time></trkpt><trkpt lat="43.7797233" lon="11.2038233"><ele>38.666666666666664</ele><time>2026-03-28T14:32:06.85Z</time></trkpt><trkpt lat="43.77977" lon="11.2036917"><ele>39.0</ele><time>2026-03-28T14:32:09.85Z</time></trkpt><trkpt lat="43.7798267" lon="11.2035967"><ele>39.333333333333336</ele><time>2026-03-28T14:32:11.849Z</time></trkpt><trkpt lat="43.7798417" lon="11.2034933"><ele>39.66666666666667</ele><time>2026-03-28T14:32:13.85Z</time></trkpt><trkpt lat="43.7798583" lon="11.2033583"><ele>40.0</ele><time>2026-03-28T14:32:16.849Z</time></trkpt><trkpt lat="43.7798733" lon="11.2032567"><ele>40.0</ele><time>2026-03-28T14:32:18.85Z</time></trkpt><trkpt lat="43.7798833" lon="11.2031467"><ele>40.0</ele><time>2026-03-28T14:32:20.849Z</time></trkpt><trkpt lat="43.7798867" lon="11.203045"><ele>40.0</ele><time>2026-03-28T14:32:22.85Z</time></trkpt><trkpt lat="43.779895" lon="11.2029467"><ele>40.0</ele><time>2026-03-28T14:32:24.849Z</time></trkpt><trkpt lat="43.7799117" lon="11.202845"><ele>40.0</ele><time>2026-03-28T14:32:26.85Z</time></trkpt><trkpt lat="43.779925" lon="11.2027467"><ele>40.0</ele><time>2026-03-28T14:32:28.85Z</time></trkpt><trkpt lat="43.7799417" lon="11.2026333"><ele>40.0</ele><time>2026-03-28T14:32:30.85Z</time></trkpt><trkpt lat="43.77996" lon="11.20252"><ele>40.0</ele><time>2026-03-28T14:32:32.85Z</time></trkpt><trkpt lat="43.779975" lon="11.202405"><ele>40.0</ele><time>2026-03-28T14:32:34.85Z</time></trkpt><trkpt lat="43.7799933" lon="11.2022933"><ele>40.0</ele><time>2026-03-28T14:32:36.85Z</time></trkpt><trkpt lat="43.78001" lon="11.2021833"><ele>40.0</ele><time>2026-03-28T14:32:38.85Z</time></trkpt><trkpt lat="43.7800267" lon="11.2020767"><ele>40.0</ele><time>2026-03-28T14:32:40.85Z</time></trkpt><trkpt lat="43.7800367" lon="11.2019667"><ele>40.16666666666667</ele><time>2026-03-28T14:32:42.85Z</time></trkpt><trkpt lat="43.7800533" lon="11.2018633"><ele>40.333333333333336</ele><time>2026-03-28T14:32:44.85Z</time></trkpt><trkpt lat="43.7800683" lon="11.2017783"><ele>40.5</ele><time>2026-03-28T14:32:46.85Z</time></trkpt><trkpt lat="43.78009" lon="11.2016533"><ele>40.666666666666664</ele><time>2026-03-28T14:32:49.85Z</time></trkpt><trkpt lat="43.780035" lon="11.20159"><ele>40.83333333333333</ele><time>2026-03-28T14:32:53.85Z</time></trkpt><trkpt lat="43.7799633" lon="11.2015533"><ele>41.0</ele><time>2026-03-28T14:32:55.85Z</time></trkpt><trkpt lat="43.7798783" lon="11.2015333"><ele>41.0</ele><time>2026-03-28T14:32:57.849Z</time></trkpt><trkpt lat="43.7797933" lon="11.2015017"><ele>41.0</ele><time>2026-03-28T14:32:59.85Z</time></trkpt><trkpt lat="43.7797233" lon="11.20146"><ele>41.0</ele><time>2026-03-28T14:33:01.85Z</time></trkpt><trkpt lat="43.7796317" lon="11.2014067"><ele>41.0</ele><time>2026-03-28T14:33:04.85Z</time></trkpt><trkpt lat="43.7795333" lon="11.2013517"><ele>41.0</ele><time>2026-03-28T14:33:07.85Z</time></trkpt><trkpt lat="43.7794317" lon="11.20129"><ele>40.83333333333333</ele><time>2026-03-28T14:33:09.85Z</time></trkpt><trkpt lat="43.7793567" lon="11.201255"><ele>40.666666666666664</ele><time>2026-03-28T14:33:11.85Z</time></trkpt><trkpt lat="43.7792633" lon="11.201205"><ele>40.5</ele><time>2026-03-28T14:33:13.85Z</time></trkpt><trkpt lat="43.7791817" lon="11.201155"><ele>40.333333333333336</ele><time>2026-03-28T14:33:15.85Z</time></trkpt><trkpt lat="43.7790967" lon="11.2011117"><ele>40.16666666666667</ele><time>2026-03-28T14:33:17.85Z</time></trkpt><trkpt lat="43.779015" lon="11.2010683"><ele>40.0</ele><time>2026-03-28T14:33:19.85Z</time></trkpt><trkpt lat="43.7789233" lon="11.2010217"><ele>40.0</ele><time>2026-03-28T14:33:21.85Z</time></trkpt><trkpt lat="43.7788467" lon="11.2009633"><ele>40.0</ele><time>2026-03-28T14:33:23.85Z</time></trkpt><trkpt lat="43.7787783" lon="11.2008933"><ele>40.0</ele><time>2026-03-28T14:33:25.85Z</time></trkpt><trkpt lat="43.7787167" lon="11.200825"><ele>40.0</ele><time>2026-03-28T14:33:27.85Z</time></trkpt><trkpt lat="43.7786667" lon="11.2007567"><ele>40.0</ele><time>2026-03-28T14:33:29.85Z</time></trkpt><trkpt lat="43.778615" lon="11.2007067"><ele>40.0</ele><time>2026-03-28T14:33:31.85Z</time></trkpt><trkpt lat="43.7785467" lon="11.2006967"><ele>40.0</ele><time>2026-03-28T14:33:34.85Z</time></trkpt><trkpt lat="43.7785033" lon="11.20078"><ele>40.0</ele><time>2026-03-28T14:33:37.85Z</time></trkpt><trkpt lat="43.778445" lon="11.200815"><ele>40.0</ele><time>2026-03-28T14:33:47.85Z</time></trkpt><trkpt lat="43.7783883" lon="11.2007267"><ele>40.0</ele><time>2026-03-28T14:33:52.849Z</time></trkpt><trkpt lat="43.7783317" lon="11.2006833"><ele>40.0</ele><time>2026-03-28T14:33:54.849Z</time></trkpt><trkpt lat="43.778255" lon="11.2006267"><ele>40.0</ele><time>2026-03-28T14:33:57.85Z</time></trkpt><trkpt lat="43.7782783" lon="11.2005083"><ele>40.0</ele><time>2026-03-28T14:35:34.848Z</time></trkpt><trkpt lat="43.7782283" lon="11.2004283"><ele>40.0</ele><time>2026-03-28T14:35:39.849Z</time></trkpt><trkpt lat="43.778175" lon="11.20035"><ele>40.0</ele><time>2026-03-28T14:35:46.849Z</time></trkpt><trkpt lat="43.7781667" lon="11.200225"><ele>40.0</ele><time>2026-03-28T14:35:49.848Z</time></trkpt><trkpt lat="43.77812" lon="11.2001633"><ele>40.0</ele><time>2026-03-28T14:35:51.849Z</time></trkpt><trkpt lat="43.77804" lon="11.2001483"><ele>40.0</ele><time>2026-03-28T14:35:54.849Z</time></trkpt></trkseg></trk></gpx>